Data for 08/08/2008

Time Sea-Level Adjusted Pressure Absolute Pressure Temperature Relative Humidity Dew Point Precipitation   
(mb) (inHg) (mb) (inHg) (C) (F) (%) (C) (F) (mm) (in)
00:01 1022 30.18 851 25.13 13.7 56.6 90 12.1 53.8 0
00:02 1022 30.18 851 25.13 13.7 56.7 89 12 53.6 0
00:03 1022 30.18 851 25.13 13.6 56.5 90 12 53.7 0
00:04 1022 30.18 851 25.13 13.5 56.3 91 12 53.7 0
00:05 1022 30.18 851 25.13 13.5 56.2 91 12.1 53.7 0
00:06 1022 30.18 851 25.13 13.4 56.1 91 12 53.5 0
00:07 1022 30.18 851 25.13 13.4 56.2 91 12 53.6 0
00:08 1022 30.18 851 25.13 13.4 56.2 91 12 53.5 0
00:09 1022 30.18 851 25.13 13.5 56.2 91 12 53.6 0
00:10 1022 30.18 851 25.13 13.4 56.2 91 12 53.6 0
00:11 1022 30.18 851 25.13 13.4 56.2 92 12.1 53.8 0
00:12 1022 30.18 851 25.13 13.5 56.4 91 12.1 53.7 0
00:13 1022 30.18 851 25.13 13.6 56.5 91 12.2 53.9 0
00:14 1022 30.18 851 25.13 13.7 56.6 90 12.1 53.7 0
00:15 1022 30.18 851 25.13 13.7 56.7 90 12.1 53.7 0
00:16 1022 30.18 851 25.13 13.7 56.7 90 12 53.6 0
00:17 1022 30.18 851 25.13 13.7 56.7 89 12 53.6 0
00:18 1022 30.18 851 25.13 13.8 56.8 89 11.9 53.5 0
00:19 1022 30.18 851 25.13 13.8 56.9 89 12.1 53.7 0
00:20 1022 30.18 851 25.13 13.9 57 89 12.1 53.7 0
00:21 1022 30.18 851 25.13 13.9 57.1 88 12 53.6 0
00:22 1022 30.18 851 25.13 14 57.1 88 12 53.6 0
00:23 1022 30.18 851 25.13 13.9 57 88 12 53.6 0
00:24 1022 30.18 851 25.13 13.9 57 88 11.9 53.4 0
00:25 1022 30.18 851 25.13 13.9 56.9 88 12 53.6 0
00:26 1022 30.18 851 25.13 13.9 57 87 11.8 53.3 0
00:27 1022 30.18 851 25.13 14 57.1 87 11.8 53.3 0
00:28 1022 30.18 851 25.13 14.1 57.3 87 11.9 53.5 0
00:29 1022 30.18 851 25.13 14.1 57.4 86 11.9 53.3 0
00:30 1022 30.18 851 25.13 14.2 57.6 86 11.9 53.4 0
00:31 1022 30.18 851 25.13 14.3 57.7 86 12 53.6 0
00:32 1022 30.18 851 25.13 14.3 57.7 86 12 53.6 0
00:33 1022 30.18 851 25.13 14.2 57.6 86 11.9 53.4 0
00:34 1022 30.18 851 25.13 14.3 57.8 85 11.9 53.3 0
00:35 1022 30.18 851 25.13 14.3 57.7 85 11.8 53.3 0
00:36 1022 30.18 851 25.13 14.2 57.5 85 11.7 53 0
00:37 1022 30.18 851 25.13 14.1 57.3 86 11.7 53.1 0
00:38 1022 30.18 851 25.13 14 57.2 86 11.7 53 0
00:39 1022 30.18 851 25.13 14 57.2 85 11.6 52.9 0
00:40 1022 30.18 851 25.13 14.1 57.3 85 11.7 53 0
00:41 1022 30.18 851 25.13 14.1 57.4 85 11.7 53 0
00:42 1022 30.18 851 25.13 14.1 57.4 85 11.7 53.1 0
00:43 1022 30.18 851 25.13 14.1 57.4 85 11.7 53 0
00:44 1022 30.18 851 25.13 14 57.3 85 11.7 53 0
00:45 1022 30.18 851 25.13 14 57.2 86 11.6 52.9 0
00:46 1022 30.18 851 25.13 13.9 56.9 86 11.6 52.9 0
00:47 1022 30.18 851 25.13 13.7 56.6 86 11.5 52.7 0
00:48 1022 30.18 851 25.13 13.5 56.3 87 11.4 52.6 0
00:49 1022 30.18 851 25.13 13.4 56.2 87 11.4 52.4 0
00:50 1022 30.18 851 25.13 13.4 56.2 88 11.4 52.6 0
00:51 1022 30.18 851 25.13 13.5 56.3 87 11.4 52.5 0
00:52 1022 30.18 851 25.13 13.7 56.6 87 11.5 52.7 0
00:53 1022 30.18 851 25.13 13.8 56.9 86 11.5 52.6 0
00:54 1022 30.18 851 25.13 13.9 57.1 85 11.5 52.7 0
00:55 1022 30.18 851 25.13 14 57.2 85 11.5 52.7 0
00:56 1022 30.18 851 25.13 14 57.2 85 11.5 52.6 0
00:57 1022 30.18 851 25.13 14 57.3 85 11.5 52.7 0
00:58 1022 30.18 851 25.13 14 57.2 84 11.5 52.6 0
00:59 1022 30.18 851 25.13 14 57.3 84 11.5 52.6 0
01:00 1022 30.18 851 25.13 14 57.2 85 11.5 52.7 0
01:01 1022 30.18 851 25.13 13.9 57 85 11.4 52.5 0
01:02 1022 30.18 851 25.13 13.8 56.8 86 11.5 52.6 0
01:03 1022 30.18 851 25.13 13.7 56.7 86 11.4 52.6 0
01:04 1022 30.18 851 25.13 13.7 56.7 86 11.5 52.7 0
01:05 1022 30.18 851 25.13 13.8 56.8 86 11.5 52.7 0
01:06 1022 30.18 851 25.13 13.8 56.8 85 11.2 52.2 0
01:07 1022 30.18 851 25.13 13.5 56.2 86 11.2 52.2 0
01:08 1022 30.18 851 25.13 13.1 55.6 88 11.1 52.1 0
01:09 1022 30.18 851 25.13 12.8 55 89 11.1 52 0
01:10 1022 30.18 851 25.13 12.6 54.7 90 11 51.9 0
01:11 1022 30.18 851 25.13 12.5 54.5 91 11.1 51.9 0
01:12 1022 30.18 851 25.13 12.5 54.6 91 11.1 51.9 0
01:13 1022 30.18 851 25.13 12.5 54.6 91 11.1 51.9 0
01:14 1022 30.18 851 25.13 12.5 54.5 90 10.9 51.6 0
01:15 1022 30.18 851 25.13 12.4 54.4 91 11 51.8 0
01:16 1022 30.18 852 25.16 12.4 54.3 92 11.1 51.9 0
01:17 1022 30.18 852 25.16 12.5 54.4 92 11.2 52.1 0
01:18 1022 30.18 851 25.13 12.6 54.8 91 11.2 52.1 0
01:19 1022 30.18 851 25.13 12.8 55 90 11.3 52.3 0
01:20 1022 30.18 851 25.13 12.8 55 90 11.3 52.3 0
01:21 1022 30.18 851 25.13 12.9 55.2 90 11.3 52.3 0
01:22 1022 30.18 851 25.13 13 55.4 89 11.3 52.3 0
01:23 1022 30.18 851 25.13 13 55.4 89 11.3 52.3 0
01:24 1022 30.18 851 25.13 13.1 55.5 89 11.3 52.3 0
01:25 1022 30.18 851 25.13 13.1 55.6 89 11.3 52.3 0
01:26 1022 30.18 851 25.13 13.2 55.7 88 11.3 52.3 0
01:27 1022 30.18 851 25.13 13.2 55.8 87 11.1 51.9 0
01:28 1022 30.18 851 25.13 13.1 55.6 86 10.8 51.4 0
01:29 1022 30.18 851 25.13 12.8 55.1 87 10.7 51.3 0
01:30 1022 30.18 852 25.16 12.5 54.5 88 10.6 51.1 0
01:31 1022 30.18 852 25.16 12.3 54.2 89 10.6 51.1 0
01:32 1022 30.18 852 25.16 12.1 53.8 91 10.6 51.1 0
01:33 1022 30.18 852 25.16 12 53.7 92 10.7 51.3 0
01:34 1022 30.18 852 25.16 12 53.6 91 10.6 51.2 0
01:35 1022 30.18 852 25.16 11.9 53.5 91 10.6 51 0
01:36 1022 30.18 852 25.16 11.9 53.5 92 10.6 51.1 0
01:37 1022 30.18 852 25.16 11.9 53.3 92 10.5 51 0
01:38 1022 30.18 851 25.13 11.9 53.4 92 10.6 51 0
01:39 1022 30.18 851 25.13 11.9 53.5 92 10.6 51.1 0
01:40 1022 30.18 851 25.13 11.9 53.4 91 10.5 51 0
01:41 1022 30.18 851 25.13 11.9 53.4 92 10.6 51.2 0
01:42 1022 30.18 851 25.13 12 53.7 92 10.8 51.4 0
01:43 1022 30.18 851 25.13 12.2 54 91 10.7 51.3 0
01:44 1022 30.18 851 25.13 12.2 53.9 90 10.6 51.2 0
01:45 1022 30.18 852 25.16 12.1 53.8 90 10.6 51 0
01:46 1022 30.18 852 25.16 12 53.6 91 10.6 51.1 0
01:47 1022 30.18 852 25.16 11.9 53.4 91 10.5 50.8 0
01:48 1022 30.18 851 25.13 11.8 53.2 91 10.4 50.8 0
01:49 1022 30.18 852 25.16 11.7 53 92 10.4 50.7 0
01:50 1022 30.18 851 25.13 11.6 52.9 92 10.4 50.7 0
01:51 1022 30.18 851 25.13 11.5 52.8 93 10.4 50.7 0
01:52 1022 30.18 851 25.13 11.5 52.7 93 10.4 50.7 0
01:53 1022 30.18 851 25.13 11.5 52.7 93 10.4 50.8 0
01:54 1022 30.18 851 25.13 11.5 52.7 93 10.4 50.7 0
01:55 1022 30.18 851 25.13 11.5 52.6 93 10.4 50.8 0
01:56 1022 30.18 851 25.13 11.5 52.7 94 10.5 50.9 0
01:57 1022 30.18 851 25.13 11.6 52.9 94 10.7 51.2 0
01:58 1022 30.18 851 25.13 11.8 53.2 94 10.8 51.5 0
01:59 1022 30.18 851 25.13 11.9 53.5 93 10.9 51.6 0
02:00 1022 30.18 851 25.13 12 53.6 93 10.9 51.7 0
02:01 1022 30.18 851 25.13 12.1 53.7 93 11 51.8 0
02:02 1022 30.18 851 25.13 12.1 53.8 93 11 51.8 0
02:03 1022 30.18 851 25.13 12.1 53.8 93 11.1 51.9 0
02:04 1022 30.18 851 25.13 12.2 53.9 93 11.2 52.1 0
02:05 1022 30.18 851 25.13 12.3 54.1 93 11.1 52 0
02:06 1022 30.18 851 25.13 12.3 54.1 93 11.2 52.1 0
02:07 1022 30.18 851 25.13 12.3 54.1 93 11.1 52.1 0
02:08 1022 30.18 851 25.13 12.3 54.2 93 11.1 52.1 0
02:09 1022 30.18 851 25.13 12.3 54.1 93 11.1 52 0
02:10 1022 30.18 851 25.13 12.3 54.1 92 11.1 51.9 0
02:11 1022 30.18 851 25.13 12.2 54 93 11.1 51.9 0
02:12 1022 30.18 851 25.13 12.2 54 93 11.1 51.9 0
02:13 1022 30.18 851 25.13 12.2 54 93 11.1 51.9 0
02:14 1022 30.18 851 25.13 12.2 53.9 93 11 51.8 0
02:15 1022 30.18 851 25.13 12.2 53.9 93 11 51.8 0
02:16 1022 30.18 851 25.13 12.1 53.9 93 11 51.9 0
02:17 1022 30.18 851 25.13 12.2 53.9 93 11.1 52 0
02:18 1022 30.18 851 25.13 12.2 54 93 11.1 52 0
02:19 1022 30.18 851 25.13 12.3 54.2 92 11.1 52.1 0
02:20 1022 30.18 851 25.13 12.4 54.3 92 11.1 52 0
02:21 1022 30.18 851 25.13 12.4 54.4 92 11.2 52.1 0
02:22 1022 30.18 851 25.13 12.4 54.3 92 11.1 52 0
02:23 1022 30.18 851 25.13 12.4 54.3 92 11.2 52.1 0
02:24 1022 30.18 851 25.13 12.4 54.3 92 11.2 52.1 0
02:25 1022 30.18 851 25.13 12.3 54.2 92 11.2 52.1 0
02:26 1022 30.18 851 25.13 12.4 54.3 93 11.3 52.3 0
02:27 1022 30.18 851 25.13 12.5 54.5 92 11.3 52.3 0
02:28 1022 30.18 851 25.13 12.6 54.7 92 11.3 52.3 0
02:29 1022 30.18 851 25.13 12.6 54.7 91 11.3 52.3 0
02:30 1022 30.18 851 25.13 12.7 54.8 91 11.3 52.4 0
02:31 1022 30.18 851 25.13 12.7 54.8 91 11.3 52.4 0
02:32 1022 30.18 851 25.13 12.7 54.8 91 11.3 52.3 0
02:33 1022 30.18 851 25.13 12.7 54.8 91 11.2 52.2 0
02:34 1022 30.18 851 25.13 12.6 54.7 91 11.2 52.1 0
02:35 1022 30.18 851 25.13 12.5 54.5 91 11.1 52 0
02:36 1022 30.18 851 25.13 12.5 54.4 92 11.1 52 0
02:37 1022 30.18 851 25.13 12.5 54.4 92 11.2 52.1 0
02:38 1022 30.18 851 25.13 12.4 54.3 92 11.1 51.9 0
02:39 1022 30.18 851 25.13 12.3 54.2 92 11 51.8 0
02:40 1022 30.18 851 25.13 12.2 54 92 11 51.7 0
02:41 1022 30.18 851 25.13 12.2 53.9 92 10.9 51.6 0
02:42 1022 30.18 851 25.13 12.1 53.7 92 10.8 51.5 0
02:43 1022 30.18 851 25.13 12 53.6 93 10.8 51.5 0
02:44 1022 30.18 851 25.13 12 53.5 93 10.8 51.5 0
02:45 1022 30.18 851 25.13 11.9 53.5 92 10.7 51.3 0
02:46 1022 30.18 851 25.13 11.9 53.4 93 10.7 51.3 0
02:47 1022 30.18 851 25.13 11.9 53.3 93 10.8 51.4 0
02:48 1022 30.18 851 25.13 11.9 53.4 94 10.9 51.6 0
02:49 1022 30.18 851 25.13 12 53.7 93 10.9 51.7 0
02:50 1022 30.18 851 25.13 12.2 53.9 92 11 51.8 0
02:51 1022 30.18 851 25.13 12.2 53.9 92 10.9 51.6 0
02:52 1022 30.18 851 25.13 12.2 53.9 92 10.9 51.7 0
02:53 1022 30.18 851 25.13 12.2 54 92 11 51.8 0
02:54 1022 30.18 851 25.13 12.3 54.1 91 10.9 51.6 0
02:55 1022 30.18 851 25.13 12.2 54 92 11 51.7 0
02:56 1022 30.18 851 25.13 12.2 54 91 10.8 51.5 0
02:57 1022 30.18 851 25.13 12.1 53.8 91 10.7 51.2 0
02:58 1022 30.18 851 25.13 12 53.7 92 10.7 51.3 0
02:59 1022 30.18 851 25.13 12 53.6 92 10.7 51.2 0
03:00 1022 30.18 851 25.13 12 53.5 92 10.7 51.2 0
03:01 1022 30.18 851 25.13 11.9 53.4 92 10.6 51.1 0
03:02 1022 30.18 851 25.13 11.8 53.3 92 10.6 51.1 0
03:03 1022 30.18 851 25.13 11.8 53.3 93 10.7 51.2 0
03:04 1022 30.18 851 25.13 11.9 53.3 92 10.6 51.1 0
03:05 1022 30.18 851 25.13 11.9 53.4 92 10.6 51.1 0
03:06 1022 30.18 851 25.13 11.9 53.3 92 10.6 51 0
03:07 1022 30.18 851 25.13 11.8 53.3 92 10.5 51 0
03:08 1022 30.18 851 25.13 11.8 53.2 92 10.6 51 0
03:09 1022 30.18 851 25.13 11.7 53.1 93 10.6 51.1 0
03:10 1022 30.18 851 25.13 11.8 53.2 93 10.7 51.2 0
03:11 1022 30.18 851 25.13 11.8 53.3 92 10.6 51.1 0
03:12 1022 30.18 851 25.13 11.9 53.4 93 10.8 51.4 0
03:13 1022 30.18 851 25.13 11.9 53.4 92 10.7 51.3 0
03:14 1022 30.18 851 25.13 12 53.5 92 10.8 51.4 0
03:15 1022 30.18 851 25.13 12 53.5 92 10.7 51.3 0
03:16 1022 30.18 851 25.13 11.9 53.5 92 10.7 51.2 0
03:17 1022 30.18 851 25.13 11.9 53.4 92 10.6 51.1 0
03:18 1022 30.18 851 25.13 11.9 53.5 92 10.7 51.3 0
03:19 1022 30.18 851 25.13 12 53.5 92 10.6 51.2 0
03:20 1022 30.18 851 25.13 11.9 53.5 91 10.6 51.1 0
03:21 1022 30.18 851 25.13 11.9 53.3 92 10.6 51 0
03:22 1022 30.18 851 25.13 11.8 53.2 92 10.5 51 0
03:23 1022 30.18 851 25.13 11.7 53.1 92 10.5 50.8 0
03:24 1022 30.18 851 25.13 11.6 52.9 92 10.4 50.8 0
03:25 1022 30.18 851 25.13 11.6 52.8 92 10.3 50.6 0
03:26 1022 30.18 851 25.13 11.5 52.7 93 10.3 50.6 0
03:27 1022 30.18 851 25.13 11.4 52.5 93 10.3 50.5 0
03:28 1022 30.18 851 25.13 11.3 52.3 93 10.2 50.3 0
03:29 1022 30.18 851 25.13 11.3 52.3 93 10.1 50.2 0
03:30 1022 30.18 851 25.13 11.2 52.2 93 10.1 50.2 0
03:31 1022 30.18 851 25.13 11.2 52.2 94 10.2 50.4 0
03:32 1022 30.18 851 25.13 11.2 52.1 94 10.2 50.3 0
03:33 1022 30.18 851 25.13 11.2 52.1 94 10.2 50.4 0
03:34 1022 30.18 851 25.13 11.2 52.2 94 10.3 50.5 0
03:35 1022 30.18 851 25.13 11.3 52.3 94 10.3 50.5 0
03:36 1022 30.18 851 25.13 11.3 52.3 94 10.3 50.6 0
03:37 1022 30.18 851 25.13 11.4 52.6 94 10.5 50.8 0
03:38 1022 30.18 851 25.13 11.5 52.8 93 10.5 50.9 0
03:39 1022 30.18 851 25.13 11.7 53 93 10.6 51 0
03:40 1022 30.18 851 25.13 11.7 53.1 92 10.5 51 0
03:41 1022 30.18 851 25.13 11.8 53.2 92 10.5 51 0
03:42 1022 30.18 851 25.13 11.8 53.2 93 10.6 51.1 0
03:43 1022 30.18 851 25.13 11.8 53.2 93 10.6 51.1 0
03:44 1022 30.18 851 25.13 11.9 53.4 93 10.7 51.3 0
03:45 1022 30.18 851 25.13 12 53.5 92 10.7 51.2 0
03:46 1022 30.18 851 25.13 12 53.5 92 10.6 51.2 0
03:47 1022 30.18 851 25.13 12 53.6 91 10.6 51.1 0
03:48 1022 30.18 851 25.13 11.9 53.4 92 10.6 51.1 0
03:49 1022 30.18 851 25.13 11.8 53.3 92 10.6 51 0
03:50 1022 30.18 851 25.13 11.8 53.2 92 10.6 51.1 0
03:51 1022 30.18 851 25.13 11.7 53 92 10.5 50.9 0
03:52 1022 30.18 851 25.13 11.7 53 93 10.5 50.9 0
03:53 1022 30.18 851 25.13 11.7 53 93 10.5 50.9 0
03:54 1022 30.18 851 25.13 11.7 53 93 10.5 50.9 0
03:55 1022 30.18 851 25.13 11.6 52.9 92 10.4 50.8 0
03:56 1022 30.18 851 25.13 11.6 52.9 93 10.4 50.8 0
03:57 1022 30.18 851 25.13 11.6 52.9 93 10.5 50.9 0
03:58 1022 30.18 851 25.13 11.7 53 92 10.5 50.9 0
03:59 1022 30.18 851 25.13 11.7 53.1 93 10.6 51 0
04:00 1022 30.18 851 25.13 11.7 53.1 93 10.6 51 0
04:01 1022 30.18 851 25.13 11.7 53.1 92 10.6 51 0
04:02 1022 30.18 851 25.13 11.7 53.1 93 10.6 51.1 0
04:03 1022 30.18 851 25.13 11.7 53.1 93 10.5 51 0
04:04 1022 30.18 851 25.13 11.7 53.1 92 10.5 51 0
04:05 1022 30.18 851 25.13 11.7 53.1 93 10.6 51.1 0
04:06 1022 30.18 851 25.13 11.8 53.2 92 10.6 51.1 0
04:07 1022 30.18 851 25.13 11.9 53.4 92 10.6 51.1 0
04:08 1022 30.18 851 25.13 11.9 53.4 91 10.5 50.9 0
04:09 1022 30.18 851 25.13 11.9 53.3 91 10.5 50.9 0
04:10 1022 30.18 851 25.13 11.8 53.2 92 10.5 50.9 0
04:11 1022 30.18 851 25.13 11.7 53.1 92 10.4 50.8 0
04:12 1022 30.18 851 25.13 11.7 53 92 10.4 50.7 0
04:13 1022 30.18 851 25.13 11.6 53 92 10.4 50.7 0
04:14 1022 30.18 851 25.13 11.6 52.9 92 10.3 50.6 0
04:15 1022 30.18 851 25.13 11.5 52.7 92 10.3 50.5 0
04:16 1022 30.18 851 25.13 11.5 52.7 92 10.3 50.6 0
04:17 1022 30.18 851 25.13 11.5 52.7 93 10.3 50.6 0
04:18 1022 30.18 851 25.13 11.5 52.7 93 10.3 50.6 0
04:19 1022 30.18 851 25.13 11.5 52.7 92 10.3 50.5 0
04:20 1022 30.18 851 25.13 11.5 52.7 92 10.3 50.6 0
04:21 1022 30.18 851 25.13 11.6 52.8 92 10.4 50.7 0
04:22 1022 30.18 851 25.13 11.6 53 92 10.4 50.8 0
04:23 1022 30.18 851 25.13 11.7 53.1 92 10.4 50.8 0
04:24 1022 30.18 851 25.13 11.8 53.2 92 10.5 50.9 0
04:25 1022 30.18 851 25.13 11.8 53.3 92 10.5 50.9 0
04:26 1022 30.18 851 25.13 11.9 53.4 91 10.5 50.9 0
04:27 1022 30.18 851 25.13 11.9 53.5 91 10.5 51 0
04:28 1022 30.18 851 25.13 11.9 53.4 91 10.5 50.9 0
04:29 1022 30.18 851 25.13 11.9 53.5 91 10.5 50.9 0
04:30 1022 30.18 851 25.13 11.9 53.5 91 10.5 51 0
04:31 1022 30.18 851 25.13 12 53.5 91 10.6 51.1 0
04:32 1021 30.15 851 25.13 12 53.6 91 10.6 51.2 0
04:33 1021 30.15 851 25.13 12.1 53.7 91 10.7 51.3 0
04:34 1021 30.15 851 25.13 12.1 53.8 91 10.7 51.3 0
04:35 1021 30.15 851 25.13 12.2 54 91 10.8 51.4 0
04:36 1021 30.15 851 25.13 12.3 54.1 91 10.8 51.5 0
04:37 1021 30.15 851 25.13 12.4 54.3 90 10.8 51.5 0
04:38 1021 30.15 851 25.13 12.5 54.5 89 10.8 51.4 0
04:39 1021 30.15 851 25.13 12.7 54.8 88 10.8 51.5 0
04:40 1021 30.15 851 25.13 12.8 55 88 10.9 51.6 0
04:41 1021 30.15 851 25.13 12.8 55.1 88 10.9 51.5 0
04:42 1021 30.15 851 25.13 12.8 55.1 88 10.8 51.5 0
04:43 1021 30.15 851 25.13 12.8 55.1 88 10.9 51.5 0
04:44 1021 30.15 850 25.1 12.9 55.1 88 10.9 51.5 0
04:45 1021 30.15 850 25.1 12.9 55.2 88 10.9 51.6 0
04:46 1021 30.15 850 25.1 12.9 55.2 88 10.9 51.6 0
04:47 1021 30.15 850 25.1 12.9 55.2 87 10.9 51.5 0
04:48 1021 30.15 850 25.1 13 55.3 87 10.9 51.6 0
04:49 1021 30.15 850 25.1 13.1 55.5 86 10.8 51.5 0
04:50 1021 30.15 850 25.1 13.2 55.7 85 10.8 51.4 0
04:51 1021 30.15 850 25.1 13.4 56 84 10.7 51.3 0
04:52 1021 30.15 850 25.1 13.5 56.4 83 10.8 51.4 0
04:53 1021 30.15 851 25.13 13.6 56.4 83 10.8 51.5 0
04:54 1021 30.15 851 25.13 13.5 56.4 84 10.9 51.6 0
04:55 1021 30.15 850 25.1 13.5 56.3 84 10.8 51.5 0
04:56 1021 30.15 850 25.1 13.5 56.2 84 10.9 51.5 0
04:57 1021 30.15 850 25.1 13.4 56 85 10.8 51.5 0
04:58 1021 30.15 850 25.1 13.3 55.9 85 10.8 51.5 0
04:59 1021 30.15 850 25.1 13.3 55.9 85 10.8 51.4 0
05:00 1021 30.15 850 25.1 13.2 55.8 85 10.8 51.4 0
05:01 1021 30.15 850 25.1 13.2 55.8 85 10.8 51.4 0
05:02 1021 30.15 850 25.1 13.2 55.7 85 10.8 51.5 0
05:03 1021 30.15 850 25.1 13.1 55.5 86 10.8 51.4 0
05:04 1021 30.15 850 25.1 13 55.3 86 10.7 51.3 0
05:05 1021 30.15 850 25.1 12.8 55 87 10.7 51.3 0
05:06 1021 30.15 850 25.1 12.7 54.8 88 10.7 51.3 0
05:07 1021 30.15 850 25.1 12.5 54.5 89 10.7 51.2 0
05:08 1021 30.15 850 25.1 12.4 54.3 89 10.7 51.2 0
05:09 1021 30.15 850 25.1 12.3 54.1 90 10.6 51.2 0
05:10 1021 30.15 850 25.1 12.1 53.9 90 10.6 51.1 0
05:11 1021 30.15 850 25.1 12.1 53.8 91 10.6 51.2 0
05:12 1021 30.15 850 25.1 12.1 53.8 91 10.6 51.1 0
05:13 1021 30.15 850 25.1 12.2 54 90 10.6 51.1 0
05:14 1021 30.15 850 25.1 12.3 54.1 90 10.7 51.2 0
05:15 1021 30.15 850 25.1 12.2 53.9 90 10.6 51.1 0
05:16 1021 30.15 850 25.1 12.2 53.9 90 10.6 51.1 0
05:17 1021 30.15 850 25.1 12.2 54 90 10.7 51.2 0
05:18 1021 30.15 850 25.1 12.3 54.1 90 10.6 51.1 0
05:19 1021 30.15 850 25.1 12.3 54.1 89 10.6 51.1 0
05:20 1021 30.15 850 25.1 12.3 54.2 89 10.6 51 0
05:21 1021 30.15 850 25.1 12.3 54.2 89 10.6 51.1 0
05:22 1021 30.15 850 25.1 12.4 54.3 88 10.5 50.9 0
05:23 1021 30.15 850 25.1 12.3 54.2 89 10.5 50.9 0
05:24 1021 30.15 850 25.1 12.2 54 89 10.5 50.8 0
05:25 1021 30.15 850 25.1 12.1 53.7 90 10.4 50.8 0
05:26 1021 30.15 851 25.13 12 53.6 90 10.4 50.7 0
05:27 1021 30.15 851 25.13 11.9 53.4 90 10.3 50.6 0
05:28 1021 30.15 851 25.13 11.8 53.2 91 10.3 50.5 0
05:29 1021 30.15 851 25.13 11.6 52.9 91 10.2 50.4 0
05:30 1021 30.15 851 25.13 11.5 52.7 92 10.2 50.3 0
05:31 1021 30.15 851 25.13 11.4 52.6 92 10.2 50.3 0
05:32 1021 30.15 850 25.1 11.4 52.5 92 10.2 50.3 0
05:33 1021 30.15 851 25.13 11.3 52.4 92 10.1 50.2 0
05:34 1021 30.15 850 25.1 11.3 52.3 93 10.2 50.3 0
05:35 1021 30.15 851 25.13 11.3 52.3 93 10.2 50.3 0
05:36 1021 30.15 850 25.1 11.3 52.3 93 10.1 50.3 0
05:37 1021 30.15 850 25.1 11.3 52.4 92 10.1 50.2 0
05:38 1021 30.15 850 25.1 11.4 52.4 92 10.1 50.2 0
05:39 1021 30.15 850 25.1 11.3 52.4 92 10.1 50.1 0
05:40 1021 30.15 850 25.1 11.4 52.5 92 10.2 50.3 0
05:41 1021 30.15 850 25.1 11.5 52.6 92 10.2 50.3 0
05:42 1021 30.15 850 25.1 11.5 52.7 92 10.3 50.5 0
05:43 1021 30.15 850 25.1 11.6 52.8 92 10.3 50.6 0
05:44 1021 30.15 850 25.1 11.6 53 92 10.4 50.7 0
05:45 1021 30.15 850 25.1 11.7 53.1 92 10.4 50.7 0
05:46 1021 30.15 850 25.1 11.8 53.2 91 10.4 50.6 0
05:47 1021 30.15 850 25.1 11.7 53.1 91 10.3 50.6 0
05:48 1021 30.15 850 25.1 11.7 53 91 10.3 50.5 0
05:49 1021 30.15 850 25.1 11.6 52.9 92 10.4 50.7 0
05:50 1021 30.15 850 25.1 11.6 52.8 92 10.3 50.6 0
05:51 1021 30.15 850 25.1 11.6 52.8 93 10.4 50.7 0
05:52 1021 30.15 850 25.1 11.6 52.8 93 10.4 50.7 0
05:53 1021 30.15 850 25.1 11.5 52.8 92 10.4 50.6 0
05:54 1021 30.15 850 25.1 11.5 52.7 93 10.4 50.7 0
05:55 1021 30.15 850 25.1 11.5 52.8 93 10.4 50.7 0
05:56 1021 30.15 850 25.1 11.6 52.8 92 10.4 50.7 0
05:57 1021 30.15 850 25.1 11.6 52.9 92 10.4 50.7 0
05:58 1021 30.15 850 25.1 11.6 52.9 92 10.4 50.7 0
05:59 1021 30.15 850 25.1 11.7 53 92 10.4 50.8 0
06:00 1021 30.15 850 25.1 11.7 53.1 92 10.4 50.7 0
06:01 1021 30.15 850 25.1 11.8 53.3 91 10.5 50.8 0
06:02 1021 30.15 850 25.1 11.9 53.4 91 10.5 50.8 0
06:03 1021 30.15 850 25.1 11.9 53.4 91 10.5 50.9 0
06:04 1021 30.15 850 25.1 12 53.6 91 10.5 50.9 0
06:05 1021 30.15 850 25.1 12.1 53.7 90 10.5 50.9 0
06:06 1021 30.15 850 25.1 12.1 53.7 90 10.5 50.8 0
06:07 1021 30.15 850 25.1 12.1 53.7 90 10.5 51 0
06:08 1021 30.15 850 25.1 12.1 53.8 90 10.5 50.9 0
06:09 1021 30.15 850 25.1 12.1 53.8 90 10.5 50.9 0
06:10 1021 30.15 850 25.1 12.1 53.7 90 10.5 50.9 0
06:11 1021 30.15 850 25.1 12 53.6 90 10.4 50.8 0
06:12 1021 30.15 850 25.1 12 53.5 90 10.4 50.7 0
06:13 1021 30.15 850 25.1 11.9 53.4 90 10.3 50.6 0
06:14 1021 30.15 850 25.1 11.8 53.3 90 10.3 50.5 0
06:15 1021 30.15 850 25.1 11.8 53.2 90 10.2 50.4 0
06:16 1021 30.15 850 25.1 11.7 53.1 91 10.3 50.5 0
06:17 1021 30.15 850 25.1 11.7 53.1 91 10.2 50.4 0
06:18 1021 30.15 850 25.1 11.7 53 91 10.2 50.4 0
06:19 1021 30.15 850 25.1 11.6 52.9 91 10.2 50.3 0
06:20 1021 30.15 850 25.1 11.6 52.8 91 10.2 50.3 0
06:21 1021 30.15 850 25.1 11.5 52.7 91 10.2 50.3 0
06:22 1021 30.15 850 25.1 11.5 52.6 91 10.1 50.2 0
06:23 1021 30.15 850 25.1 11.5 52.6 92 10.2 50.3 0
06:24 1021 30.15 851 25.13 11.4 52.6 92 10.1 50.2 0
06:25 1021 30.15 851 25.13 11.4 52.5 92 10.1 50.2 0
06:26 1021 30.15 851 25.13 11.3 52.4 92 10 50.1 0
06:27 1021 30.15 851 25.13 11.3 52.4 92 10 50.1 0
06:28 1021 30.15 851 25.13 11.3 52.4 92 10 50.1 0
06:29 1021 30.15 851 25.13 11.2 52.2 92 10 49.9 0
06:30 1021 30.15 851 25.13 11.2 52.1 92 9.9 49.9 0
06:31 1021 30.15 851 25.13 11.2 52.1 92 10 50 0
06:32 1021 30.15 851 25.13 11.2 52.1 92 10 50 0
06:33 1021 30.15 851 25.13 11.2 52.2 92 10 50 0
06:34 1021 30.15 851 25.13 11.2 52.2 92 10 50 0
06:35 1021 30.15 851 25.13 11.2 52.2 92 10 50.1 0
06:36 1021 30.15 851 25.13 11.3 52.3 92 10 50 0
06:37 1021 30.15 851 25.13 11.3 52.3 92 10 50 0
06:38 1021 30.15 851 25.13 11.3 52.3 92 10 49.9 0
06:39 1021 30.15 851 25.13 11.2 52.2 91 9.9 49.8 0
06:40 1021 30.15 851 25.13 11.2 52.2 91 9.8 49.7 0
06:41 1021 30.15 851 25.13 11.1 52.1 91 9.8 49.6 0
06:42 1021 30.15 851 25.13 11.1 52.1 92 9.9 49.8 0
06:43 1021 30.15 851 25.13 11.2 52.1 92 9.9 49.9 0
06:44 1021 30.15 851 25.13 11.2 52.1 92 9.9 49.9 0
06:45 1021 30.15 851 25.13 11.2 52.1 92 9.9 49.8 0
06:46 1021 30.15 851 25.13 11.1 52.1 93 10 50.1 0
06:47 1021 30.15 851 25.13 11.1 52 93 10.1 50.1 0
06:48 1021 30.15 851 25.13 11.2 52.1 93 10.1 50.1 0
06:49 1021 30.15 851 25.13 11.2 52.2 93 10.1 50.2 0
06:50 1021 30.15 851 25.13 11.2 52.2 93 10.1 50.1 0
06:51 1021 30.15 851 25.13 11.2 52.2 92 9.9 49.9 0
06:52 1021 30.15 851 25.13 11.2 52.1 92 9.9 49.8 0
06:53 1021 30.15 851 25.13 11.1 52 92 9.9 49.7 0
06:54 1021 30.15 851 25.13 11.1 51.9 92 9.8 49.7 0
06:55 1021 30.15 851 25.13 11 51.8 92 9.8 49.7 0
06:56 1021 30.15 851 25.13 11 51.8 93 9.9 49.8 0
06:57 1021 30.15 851 25.13 11.1 51.9 93 10 49.9 0
06:58 1021 30.15 851 25.13 11.1 52 93 10 50 0
06:59 1021 30.15 851 25.13 11.1 52.1 93 10 50 0
07:00 1021 30.15 851 25.13 11.1 52 93 10 50 0
07:01 1021 30.15 851 25.13 11.2 52.1 93 10 50.1 0
07:02 1021 30.15 851 25.13 11.2 52.2 93 10.1 50.2 0
07:03 1021 30.15 851 25.13 11.3 52.3 93 10.2 50.3 0
07:04 1021 30.15 851 25.13 11.4 52.5 92 10.2 50.4 0
07:05 1021 30.15 851 25.13 11.5 52.7 92 10.3 50.5 0
07:06 1021 30.15 851 25.13 11.6 52.8 92 10.3 50.6 0
07:07 1021 30.15 851 25.13 11.6 52.9 92 10.4 50.6 0
07:08 1021 30.15 851 25.13 11.7 53 92 10.4 50.7 0
07:09 1021 30.15 851 25.13 11.7 53.1 92 10.4 50.8 0
07:10 1021 30.15 851 25.13 11.8 53.2 92 10.5 50.9 0
07:11 1021 30.15 851 25.13 11.9 53.3 91 10.5 50.9 0
07:12 1021 30.15 851 25.13 11.9 53.4 92 10.5 51 0
07:13 1021 30.15 851 25.13 11.9 53.3 92 10.6 51 0
07:14 1021 30.15 851 25.13 11.9 53.4 92 10.6 51 0
07:15 1021 30.15 851 25.13 11.9 53.4 92 10.6 51.1 0
07:16 1021 30.15 851 25.13 11.9 53.5 91 10.6 51 0
07:17 1021 30.15 851 25.13 11.9 53.5 91 10.6 51.1 0
07:18 1021 30.15 851 25.13 11.9 53.5 91 10.6 51.1 0
07:19 1021 30.15 851 25.13 11.9 53.5 91 10.6 51 0
07:20 1021 30.15 851 25.13 12 53.5 91 10.6 51.1 0
07:21 1021 30.15 851 25.13 12 53.5 91 10.6 51 0
07:22 1021 30.15 851 25.13 12 53.5 91 10.5 50.9 0
07:23 1021 30.15 851 25.13 12 53.6 91 10.5 51 0
07:24 1021 30.15 851 25.13 12.1 53.7 90 10.5 50.9 0
07:25 1021 30.15 851 25.13 12.1 53.8 90 10.5 51 0
07:26 1021 30.15 851 25.13 12.2 54 90 10.6 51.1 0
07:27 1021 30.15 851 25.13 12.3 54.2 89 10.6 51.1 0
07:28 1021 30.15 851 25.13 12.5 54.4 89 10.8 51.4 0
07:29 1021 30.15 851 25.13 12.5 54.6 89 10.8 51.5 0
07:30 1021 30.15 851 25.13 12.6 54.7 88 10.8 51.4 0
07:31 1021 30.15 851 25.13 12.7 54.9 89 10.9 51.6 0
07:32 1021 30.15 851 25.13 12.8 55.1 89 11 51.9 0
07:33 1021 30.15 851 25.13 13 55.3 88 11 51.8 0
07:34 1021 30.15 851 25.13 13 55.4 89 11.2 52.1 0
07:35 1022 30.18 851 25.13 13 55.4 88 11.1 52 0
07:36 1022 30.18 851 25.13 13.1 55.7 88 11.2 52.1 0
07:37 1022 30.18 851 25.13 13.3 55.9 87 11.2 52.1 0
07:38 1022 30.18 851 25.13 13.4 56.2 86 11.2 52.2 0
07:39 1021 30.15 851 25.13 13.6 56.4 86 11.3 52.3 0
07:40 1021 30.15 851 25.13 13.7 56.7 86 11.5 52.7 0
07:41 1021 30.15 851 25.13 13.9 57 85 11.4 52.6 0
07:42 1021 30.15 851 25.13 14 57.2 84 11.4 52.5 0
07:43 1021 30.15 851 25.13 14.2 57.5 83 11.4 52.4 0
07:44 1021 30.15 851 25.13 14.3 57.8 82 11.3 52.4 0
07:45 1021 30.15 851 25.13 14.5 58 83 11.7 53 0
07:46 1021 30.15 851 25.13 14.6 58.3 83 11.8 53.2 0
07:47 1021 30.15 851 25.13 14.7 58.5 82 11.6 52.9 0
07:48 1021 30.15 851 25.13 14.8 58.7 81 11.6 52.9 0
07:49 1021 30.15 851 25.13 14.9 58.8 82 12 53.6 0
07:50 1021 30.15 851 25.13 15 59 81 11.8 53.2 0
07:51 1021 30.15 851 25.13 15.2 59.3 81 12 53.6 0
07:52 1021 30.15 851 25.13 15.2 59.4 79 11.7 53 0
07:53 1021 30.15 851 25.13 15.4 59.7 79 11.7 53.1 0
07:54 1021 30.15 851 25.13 15.4 59.8 79 11.9 53.3 0
07:55 1021 30.15 851 25.13 15.5 59.9 79 11.9 53.4 0
07:56 1021 30.15 851 25.13 15.6 60 78 11.8 53.2 0
07:57 1021 30.15 851 25.13 15.6 60.1 79 12 53.7 0
07:58 1021 30.15 851 25.13 15.7 60.2 75 11.3 52.4 0
07:59 1021 30.15 851 25.13 15.7 60.2 79 12.1 53.8 0
08:00 1021 30.15 851 25.13 15.7 60.3 77 11.8 53.3 0
08:01 1021 30.15 851 25.13 15.8 60.4 76 11.7 53 0
08:02 1021 30.15 851 25.13 15.8 60.5 79 12.2 54 0
08:03 1021 30.15 851 25.13 15.9 60.6 80 12.5 54.5 0
08:04 1021 30.15 851 25.13 16 60.8 76 11.9 53.4 0
08:05 1021 30.15 851 25.13 16 60.8 76 11.9 53.4 0
08:06 1021 30.15 851 25.13 16 60.8 82 12.9 55.2 0
08:07 1021 30.15 851 25.13 16.1 61 78 12.3 54.1 0
08:08 1021 30.15 851 25.13 16.1 61.1 77 12.1 53.7 0
08:09 1021 30.15 851 25.13 16.2 61.1 75 11.8 53.3 0
08:10 1021 30.15 851 25.13 16.2 61.1 76 11.9 53.5 0
08:11 1021 30.15 851 25.13 16.2 61.2 78 12.4 54.3 0
08:12 1021 30.15 851 25.13 16.3 61.3 77 12.3 54.1 0
08:13 1021 30.15 851 25.13 16.3 61.3 79 12.6 54.7 0
08:14 1021 30.15 851 25.13 16.2 61.2 78 12.4 54.4 0
08:15 1021 30.15 851 25.13 16.2 61.1 78 12.4 54.4 0
08:16 1021 30.15 850 25.1 16.1 60.9 81 12.9 55.2 0
08:17 1021 30.15 851 25.13 16 60.8 80 12.5 54.5 0
08:18 1021 30.15 851 25.13 15.9 60.6 78 12.1 53.9 0
08:19 1021 30.15 850 25.1 15.9 60.6 79 12.4 54.2 0
08:20 1021 30.15 851 25.13 15.9 60.5 80 12.4 54.4 0
08:21 1021 30.15 850 25.1 15.9 60.5 80 12.4 54.3 0
08:22 1021 30.15 850 25.1 15.9 60.6 79 12.3 54.1 0
08:23 1021 30.15 850 25.1 15.9 60.7 80 12.5 54.4 0
08:24 1021 30.15 850 25.1 16 60.8 81 12.7 54.9 0
08:25 1021 30.15 850 25.1 16.1 61 81 12.8 55.1 0
08:26 1021 30.15 850 25.1 16.2 61.1 78 12.4 54.2 0
08:27 1021 30.15 850 25.1 16.2 61.1 77 12.2 53.9 0
08:28 1021 30.15 850 25.1 16.2 61.2 80 12.7 54.9 0
08:29 1021 30.15 850 25.1 16.3 61.3 79 12.7 54.8 0
08:30 1021 30.15 850 25.1 16.3 61.4 80 12.9 55.1 0
08:31 1021 30.15 850 25.1 16.5 61.6 77 12.5 54.5 0
08:32 1021 30.15 850 25.1 16.5 61.7 79 12.9 55.3 0
08:33 1021 30.15 850 25.1 16.6 61.9 76 12.4 54.3 0
08:34 1021 30.15 850 25.1 16.7 62.1 78 12.8 55.1 0
08:35 1021 30.15 850 25.1 16.7 62.1 78 12.9 55.2 0
08:36 1021 30.15 850 25.1 16.9 62.3 77 12.9 55.3 0
08:37 1021 30.15 850 25.1 16.9 62.4 76 12.6 54.7 0
08:38 1021 30.15 850 25.1 16.9 62.4 77 12.8 55.1 0
08:39 1021 30.15 850 25.1 17 62.6 76 12.7 54.9 0
08:40 1021 30.15 850 25.1 17.1 62.8 73 12.2 54 0
08:41 1021 30.15 850 25.1 17.1 62.8 75 12.6 54.7 0
08:42 1021 30.15 850 25.1 17.1 62.8 74 12.5 54.4 0
08:43 1021 30.15 850 25.1 17.2 62.9 74 12.6 54.6 0
08:44 1021 30.15 850 25.1 17.2 63 71 12 53.6 0
08:45 1021 30.15 850 25.1 17.3 63.1 73 12.5 54.6 0
08:46 1021 30.15 850 25.1 17.3 63.2 71 12.1 53.7 0
08:47 1021 30.15 850 25.1 17.4 63.3 74 12.7 54.9 0
08:48 1021 30.15 850 25.1 17.4 63.4 74 12.8 55 0
08:49 1021 30.15 850 25.1 17.5 63.6 75 13.1 55.6 0
08:50 1021 30.15 850 25.1 17.7 63.8 71 12.5 54.5 0
08:51 1021 30.15 850 25.1 17.8 64 72 12.7 54.8 0
08:52 1021 30.15 850 25.1 17.8 64.1 70 12.3 54.1 0
08:53 1021 30.15 850 25.1 17.8 64.1 71 12.5 54.5 0
08:54 1021 30.15 850 25.1 17.9 64.3 74 13.2 55.7 0
08:55 1021 30.15 850 25.1 18 64.5 69 12.4 54.3 0
08:56 1021 30.15 850 25.1 18.1 64.7 73 13.4 56 0
08:57 1021 30.15 850 25.1 18.2 64.8 72 13.1 55.6 0
08:58 1021 30.15 850 25.1 18.2 64.8 67 12 53.7 0
08:59 1021 30.15 850 25.1 18.2 64.8 73 13.3 55.9 0
09:00 1021 30.15 850 25.1 18.2 64.8 70 12.6 54.7 0
09:01 1021 30.15 850 25.1 18.2 64.8 71 13 55.3 0
09:02 1021 30.15 850 25.1 18.3 64.9 70 12.8 55 0
09:03 1021 30.15 850 25.1 18.3 64.9 71 13 55.4 0
09:04 1021 30.15 850 25.1 18.3 65 71 13.1 55.6 0
09:05 1021 30.15 850 25.1 18.4 65 74 13.7 56.7 0
09:06 1021 30.15 850 25.1 18.3 64.9 70 12.8 55 0
09:07 1021 30.15 850 25.1 18.2 64.7 70 12.6 54.7 0
09:08 1021 30.15 850 25.1 18 64.5 69 12.4 54.3 0
09:09 1021 30.15 850 25.1 18 64.3 72 13 55.4 0
09:10 1021 30.15 850 25.1 17.9 64.3 74 13.4 56.1 0
09:11 1021 30.15 850 25.1 18 64.5 75 13.5 56.3 0
09:12 1021 30.15 850 25.1 18.1 64.6 72 13 55.4 0
09:13 1021 30.15 850 25.1 18.2 64.8 71 12.9 55.3 0
09:14 1021 30.15 850 25.1 18.3 65 74 13.6 56.4 0
09:15 1021 30.15 850 25.1 18.4 65.2 72 13.3 55.9 0
09:16 1021 30.15 850 25.1 18.5 65.4 71 13.2 55.8 0
09:17 1021 30.15 850 25.1 18.7 65.6 71 13.4 56.1 0
09:18 1021 30.15 850 25.1 18.8 65.8 70 13.3 56 0
09:19 1021 30.15 850 25.1 18.8 65.8 69 13.1 55.6 0
09:20 1021 30.15 850 25.1 18.9 66.1 73 14.1 57.4 0
09:21 1021 30.15 850 25.1 19.1 66.4 68 13.1 55.6 0
09:22 1021 30.15 850 25.1 19.1 66.5 67 13.1 55.5 0
09:23 1021 30.15 850 25.1 19.2 66.5 68 13.2 55.8 0
09:24 1021 30.15 850 25.1 19.2 66.5 66 12.7 54.8 0
09:25 1021 30.15 850 25.1 19.2 66.5 68 13.1 55.7 0
09:26 1021 30.15 850 25.1 19.2 66.5 68 13.2 55.7 0
09:27 1021 30.15 850 25.1 19.2 66.5 70 13.6 56.6 0
09:28 1021 30.15 850 25.1 19.3 66.7 66 12.9 55.2 0
09:29 1021 30.15 850 25.1 19.4 67 68 13.4 56.1 0
09:30 1021 30.15 850 25.1 19.5 67.1 68 13.6 56.4 0
09:31 1021 30.15 850 25.1 19.6 67.2 66 13.2 55.8 0
09:32 1021 30.15 850 25.1 19.7 67.4 65 12.9 55.3 0
09:33 1021 30.15 850 25.1 19.7 67.4 71 14.3 57.7 0
09:34 1021 30.15 850 25.1 19.8 67.7 62 12.5 54.4 0
09:35 1021 30.15 850 25.1 20 67.9 62 12.6 54.7 0
09:36 1021 30.15 850 25.1 20.1 68.1 68 14 57.2 0
09:37 1021 30.15 850 25.1 20.2 68.3 66 13.6 56.5 0
09:38 1021 30.15 850 25.1 20.2 68.3 66 13.6 56.5 0
09:39 1021 30.15 850 25.1 20.3 68.5 62 13 55.3 0
09:40 1021 30.15 850 25.1 20.4 68.6 61 12.8 55.1 0
09:41 1021 30.15 850 25.1 20.4 68.6 62 13 55.4 0
09:42 1021 30.15 850 25.1 20.3 68.5 62 12.9 55.2 0
09:43 1021 30.15 850 25.1 20.3 68.5 62 12.9 55.1 0
09:44 1021 30.15 850 25.1 20.3 68.5 61 12.6 54.7 0
09:45 1021 30.15 850 25.1 20.3 68.6 63 13.1 55.6 0
09:46 1021 30.15 850 25.1 20.4 68.7 60 12.6 54.6 0
09:47 1021 30.15 850 25.1 20.4 68.7 63 13.3 56 0
09:48 1021 30.15 850 25.1 20.5 68.9 63 13.3 55.9 0
09:49 1021 30.15 850 25.1 20.7 69.2 65 14.1 57.3 0
09:50 1021 30.15 850 25.1 20.9 69.6 59 12.7 54.8 0
09:51 1021 30.15 850 25.1 21.1 69.9 65 14.4 57.8 0
09:52 1021 30.15 850 25.1 21.1 69.9 57 12.3 54.2 0
09:53 1021 30.15 850 25.1 21 69.8 60 13.2 55.7 0
09:54 1021 30.15 850 25.1 21.2 70.1 59 12.9 55.1 0
09:55 1021 30.15 850 25.1 21.3 70.4 57 12.6 54.8 0
09:56 1021 30.15 850 25.1 21.4 70.4 62 13.9 57 0
09:57 1021 30.15 850 25.1 21.4 70.4 57 12.7 54.8 0
09:58 1021 30.15 850 25.1 21.3 70.3 57 12.7 54.8 0
09:59 1021 30.15 850 25.1 21.3 70.4 58 13 55.4 0
10:00 1021 30.15 850 25.1 21.4 70.6 59 13.2 55.8 0
10:01 1021 30.15 850 25.1 21.5 70.7 62 14.1 57.3 0
10:02 1021 30.15 850 25.1 21.6 70.8 61 13.7 56.7 0
10:03 1021 30.15 850 25.1 21.6 70.9 63 14.4 58 0
10:04 1021 30.15 850 25.1 21.6 70.9 66 15.1 59.2 0
10:05 1021 30.15 850 25.1 21.6 70.8 56 12.5 54.4 0
10:06 1021 30.15 850 25.1 21.7 71 56 12.7 54.8 0
10:07 1021 30.15 850 25.1 21.8 71.2 64 14.7 58.4 0
10:08 1021 30.15 850 25.1 21.8 71.3 57 13 55.4 0
10:09 1021 30.15 850 25.1 21.8 71.2 55 12.4 54.4 0
10:10 1021 30.15 850 25.1 21.7 71 58 13.1 55.6 0
10:11 1021 30.15 850 25.1 21.6 70.9 55 12.3 54.2 0
10:12 1021 30.15 850 25.1 21.5 70.8 56 12.4 54.3 0
10:13 1021 30.15 850 25.1 21.6 70.8 57 13 55.3 0
10:14 1021 30.15 850 25.1 21.6 70.9 57 12.9 55.2 0
10:15 1021 30.15 850 25.1 21.5 70.8 57 12.8 55.1 0
10:16 1021 30.15 850 25.1 21.5 70.7 58 13.1 55.5 0
10:17 1021 30.15 850 25.1 21.5 70.6 59 13.2 55.7 0
10:18 1021 30.15 850 25.1 21.4 70.5 58 12.9 55.2 0
10:19 1021 30.15 850 25.1 21.2 70.2 61 13.6 56.4 0
10:20 1021 30.15 850 25.1 21.3 70.3 57 12.5 54.4 0
10:21 1021 30.15 850 25.1 21.3 70.4 59 13.1 55.6 0
10:22 1021 30.15 850 25.1 21.4 70.5 60 13.5 56.3 0
10:23 1021 30.15 850 25.1 21.5 70.7 56 12.4 54.4 0
10:24 1021 30.15 850 25.1 21.5 70.8 61 13.8 56.8 0
10:25 1021 30.15 850 25.1 21.6 70.9 56 12.7 54.8 0
10:26 1021 30.15 850 25.1 21.9 71.3 59 13.6 56.4 0
10:27 1021 30.15 850 25.1 22.1 71.7 57 13.3 56 0
10:28 1021 30.15 850 25.1 22 71.7 60 13.9 57.1 0
10:29 1021 30.15 850 25.1 21.9 71.5 57 13.2 55.7 0
10:30 1021 30.15 850 25.1 21.8 71.2 57 13.1 55.6 0
10:31 1021 30.15 850 25.1 21.9 71.4 56 12.9 55.2 0
10:32 1021 30.15 850 25.1 21.9 71.5 56 12.8 55 0
10:33 1021 30.15 850 25.1 22 71.5 60 14 57.2 0
10:34 1021 30.15 850 25.1 22.2 71.9 58 13.5 56.3 0
10:35 1020 30.12 850 25.1 22.4 72.2 55 12.9 55.3 0
10:36 1021 30.15 850 25.1 22.6 72.6 62 14.9 58.9 0
10:37 1020 30.12 850 25.1 22.9 73.1 59 14.6 58.3 0
10:38 1020 30.12 850 25.1 22.9 73.2 57 14.1 57.4 0
10:39 1020 30.12 850 25.1 22.8 73.1 59 14.5 58.1 0
10:40 1020 30.12 850 25.1 22.8 73.1 59 14.5 58 0
10:41 1020 30.12 850 25.1 22.8 73 56 13.7 56.7 0
10:42 1020 30.12 850 25.1 22.7 72.8 56 13.5 56.3 0
10:43 1020 30.12 850 25.1 22.6 72.6 54 13 55.3 0
10:44 1021 30.15 850 25.1 22.5 72.5 59 14.3 57.8 0
10:45 1020 30.12 850 25.1 22.7 72.8 53 12.7 54.9 0
10:46 1020 30.12 850 25.1 22.7 72.8 54 13 55.4 0
10:47 1021 30.15 850 25.1 22.6 72.8 63 15.3 59.5 0
10:48 1021 30.15 850 25.1 22.7 72.8 56 13.5 56.4 0
10:49 1021 30.15 850 25.1 22.7 72.8 55 13.5 56.2 0
10:50 1021 30.15 850 25.1 22.7 72.8 60 14.7 58.5 0
10:51 1021 30.15 850 25.1 22.7 72.8 54 13.1 55.7 0
10:52 1021 30.15 850 25.1 22.6 72.6 57 13.7 56.6 0
10:53 1021 30.15 850 25.1 22.4 72.4 58 13.9 57 0
10:54 1021 30.15 850 25.1 22.4 72.3 61 14.5 58.1 0
10:55 1021 30.15 850 25.1 22.5 72.5 62 14.9 58.8 0
10:56 1021 30.15 850 25.1 22.5 72.5 58 14.1 57.3 0
10:57 1021 30.15 850 25.1 22.6 72.7 62 15.1 59.1 0
10:58 1021 30.15 850 25.1 22.8 73 57 14 57.2 0
10:59 1021 30.15 850 25.1 22.9 73.2 52 12.7 54.9 0
11:00 1021 30.15 850 25.1 23 73.4 50 12.1 53.7 0
11:01 1021 30.15 850 25.1 23.1 73.6 51 12.5 54.6 0
11:02 1021 30.15 850 25.1 23.1 73.6 57 14.2 57.6 0
11:03 1021 30.15 850 25.1 23.1 73.6 53 13.2 55.7 0
11:04 1021 30.15 850 25.1 23.4 74 53 13.3 55.9 0
11:05 1021 30.15 850 25.1 23.7 74.6 60 15.5 59.9 0
11:06 1021 30.15 850 25.1 23.8 74.8 55 14.3 57.7 0
11:07 1020 30.12 850 25.1 23.7 74.6 55 14.3 57.7 0
11:08 1020 30.12 850 25.1 23.3 74 58 14.8 58.6 0
11:09 1020 30.12 850 25.1 23.3 73.9 60 15.2 59.3 0
11:10 1020 30.12 850 25.1 23.2 73.8 53 13.1 55.6 0
11:11 1020 30.12 850 25.1 23.1 73.5 53 13.2 55.8 0
11:12 1020 30.12 850 25.1 23 73.3 54 13.3 56 0
11:13 1020 30.12 850 25.1 22.9 73.3 56 14 57.1 0
11:14 1020 30.12 850 25.1 22.9 73.2 51 12.5 54.5 0
11:15 1020 30.12 850 25.1 22.9 73.2 59 14.5 58.1 0
11:16 1020 30.12 850 25.1 22.9 73.2 55 13.5 56.3 0
11:17 1020 30.12 850 25.1 22.8 73.1 60 14.8 58.6 0
11:18 1020 30.12 850 25.1 22.8 73 58 14.3 57.8 0
11:19 1020 30.12 850 25.1 22.8 73.1 60 14.7 58.4 0
11:20 1021 30.15 850 25.1 22.8 73.1 52 12.5 54.5 0
11:21 1021 30.15 850 25.1 22.9 73.1 56 13.6 56.5 0
11:22 1021 30.15 850 25.1 22.9 73.1 62 15.3 59.6 0
11:23 1021 30.15 850 25.1 23 73.4 59 14.6 58.4 0
11:24 1021 30.15 850 25.1 23 73.5 58 14.6 58.2 0
11:25 1021 30.15 850 25.1 23 73.4 60 14.9 58.8 0
11:26 1021 30.15 850 25.1 23 73.4 55 13.5 56.3 0
11:27 1021 30.15 850 25.1 23 73.3 57 14.2 57.6 0
11:28 1021 30.15 850 25.1 23 73.4 57 14.2 57.5 0
11:29 1021 30.15 850 25.1 23.1 73.5 64 16 60.8 0
11:30 1021 30.15 850 25.1 23.2 73.8 52 12.9 55.2 0
11:31 1021 30.15 850 25.1 23.3 73.9 58 14.7 58.5 0
11:32 1021 30.15 850 25.1 23.4 74 61 15.5 59.9 0
11:33 1021 30.15 850 25.1 23.3 73.9 53 13.3 56 0
11:34 1021 30.15 850 25.1 23.3 73.9 60 15.2 59.3 0
11:35 1021 30.15 850 25.1 23.4 74.1 53 13.5 56.4 0
11:36 1021 30.15 850 25.1 23.6 74.4 60 15.4 59.7 0
11:37 1021 30.15 850 25.1 23.6 74.5 53 13.6 56.4 0
11:38 1021 30.15 850 25.1 23.6 74.4 57 14.6 58.3 0
11:39 1021 30.15 850 25.1 23.5 74.2 52 13.3 56 0
11:40 1020 30.12 850 25.1 23.3 74 62 15.8 60.4 0
11:41 1020 30.12 850 25.1 23.2 73.8 59 14.9 58.9 0
11:42 1020 30.12 850 25.1 23.2 73.8 60 15.1 59.2 0
11:43 1020 30.12 850 25.1 23.2 73.8 64 16 60.9 0
11:44 1021 30.15 850 25.1 23.2 73.8 57 14.3 57.8 0
11:45 1021 30.15 850 25.1 23.1 73.7 57 14.2 57.6 0
11:46 1021 30.15 850 25.1 23.1 73.7 56 14.1 57.4 0
11:47 1021 30.15 850 25.1 23.1 73.5 55 13.6 56.4 0
11:48 1021 30.15 850 25.1 23 73.4 57 14.1 57.4 0
11:49 1021 30.15 850 25.1 22.9 73.2 60 14.8 58.7 0
11:50 1021 30.15 850 25.1 23 73.3 57 14.2 57.6 0
11:51 1021 30.15 850 25.1 23 73.4 56 13.9 57 0
11:52 1021 30.15 850 25.1 22.9 73.3 60 14.9 58.8 0
11:53 1021 30.15 850 25.1 22.8 73 61 14.9 58.8 0
11:54 1021 30.15 850 25.1 22.8 73.1 61 15.2 59.3 0
11:55 1020 30.12 850 25.1 22.9 73.3 63 15.6 60.2 0
11:56 1020 30.12 850 25.1 23.1 73.6 63 15.9 60.6 0
11:57 1020 30.12 850 25.1 23.2 73.8 64 16.2 61.2 0
11:58 1020 30.12 850 25.1 23.3 73.9 59 15 59 0
11:59 1020 30.12 850 25.1 23.3 73.9 57 14.5 58.1 0
12:00 1020 30.12 850 25.1 23.2 73.7 58 14.6 58.3 0
12:01 1020 30.12 850 25.1 23.2 73.7 60 15 59 0
12:02 1020 30.12 850 25.1 23.2 73.7 57 14.4 58 0
12:03 1020 30.12 850 25.1 23.2 73.7 59 14.7 58.5 0
12:04 1020 30.12 850 25.1 23.1 73.7 66 16.4 61.6 0
12:05 1020 30.12 850 25.1 23.2 73.7 63 15.8 60.5 0
12:06 1020 30.12 850 25.1 23.2 73.7 58 14.6 58.4 0
12:07 1020 30.12 850 25.1 23.2 73.8 59 15 59 0
12:08 1020 30.12 850 25.1 23.2 73.7 56 14.2 57.6 0
12:09 1020 30.12 850 25.1 23.3 73.9 56 14.3 57.7 0
12:10 1020 30.12 850 25.1 23.3 73.9 59 14.9 58.9 0
12:11 1020 30.12 850 25.1 23.3 74 60 15.4 59.7 0
12:12 1020 30.12 850 25.1 23.2 73.8 60 15.1 59.3 0
12:13 1020 30.12 850 25.1 23.1 73.7 60 15 58.9 0
12:14 1020 30.12 850 25.1 23.2 73.7 59 14.8 58.6 0
12:15 1020 30.12 850 25.1 23.3 73.9 62 15.8 60.4 0
12:16 1020 30.12 850 25.1 23.2 73.8 65 16.3 61.4 0
12:17 1020 30.12 850 25.1 23.3 73.9 60 15.2 59.3 0
12:18 1020 30.12 850 25.1 23.3 74 57 14.4 57.9 0
12:19 1020 30.12 850 25.1 23.5 74.3 53 13.6 56.5 0
12:20 1020 30.12 850 25.1 23.5 74.4 57 14.7 58.4 0
12:21 1020 30.12 850 25.1 23.5 74.2 57 14.7 58.5 0
12:22 1020 30.12 850 25.1 23.4 74.1 57 14.5 58 0
12:23 1020 30.12 850 25.1 23.4 74.1 56 14.2 57.5 0
12:24 1020 30.12 850 25.1 23.4 74.1 60 15.2 59.3 0
12:25 1020 30.12 850 25.1 23.5 74.2 59 15 59 0
12:26 1020 30.12 849 25.07 23.4 74.2 56 14.4 57.9 0
12:27 1020 30.12 849 25.07 23.3 74 55 13.9 57 0
12:28 1020 30.12 849 25.07 23.3 73.9 57 14.6 58.2 0
12:29 1020 30.12 849 25.07 23.3 74 61 15.4 59.8 0
12:30 1020 30.12 849 25.07 23.5 74.2 60 15.3 59.5 0
12:31 1020 30.12 849 25.07 23.6 74.5 62 15.9 60.6 0
12:32 1020 30.12 849 25.07 23.7 74.6 59 15.3 59.5 0
12:33 1020 30.12 849 25.07 23.7 74.7 57 14.8 58.6 0
12:34 1020 30.12 849 25.07 23.7 74.7 55 14.2 57.6 0
12:35 1020 30.12 849 25.07 23.7 74.7 57 14.9 58.9 0
12:36 1020 30.12 849 25.07 23.7 74.6 58 15.1 59.2 0
12:37 1020 30.12 849 25.07 23.7 74.7 60 15.7 60.3 0
12:38 1020 30.12 849 25.07 23.8 74.8 59 15.5 59.9 0
12:39 1020 30.12 849 25.07 23.9 75.1 59 15.7 60.2 0
12:40 1020 30.12 849 25.07 24 75.2 60 15.8 60.5 0
12:41 1020 30.12 849 25.07 24 75.2 53 14.1 57.4 0
12:42 1020 30.12 849 25.07 24 75.2 59 15.6 60.1 0
12:43 1020 30.12 849 25.07 24 75.1 59 15.6 60.2 0
12:44 1020 30.12 849 25.07 23.9 74.9 57 14.9 58.8 0
12:45 1020 30.12 849 25.07 23.8 74.8 58 15.1 59.3 0
12:46 1020 30.12 849 25.07 23.9 75 54 14 57.3 0
12:47 1020 30.12 849 25.07 23.9 75.1 64 16.8 62.3 0
12:48 1020 30.12 849 25.07 24 75.2 61 16.2 61.2 0
12:49 1020 30.12 849 25.07 24.2 75.5 56 14.9 58.8 0
12:50 1020 30.12 849 25.07 24.2 75.6 59 15.8 60.5 0
12:51 1020 30.12 849 25.07 24.3 75.7 61 16.4 61.6 0
12:52 1020 30.12 849 25.07 24.3 75.8 53 14.3 57.8 0
12:53 1020 30.12 849 25.07 24.4 75.8 56 15.2 59.3 0
12:54 1020 30.12 849 25.07 24.4 76 55 14.9 58.8 0
12:55 1020 30.12 849 25.07 24.5 76.2 49 13.2 55.7 0
12:56 1020 30.12 849 25.07 24.6 76.2 54 14.9 58.8 0
12:57 1020 30.12 849 25.07 24.5 76.1 56 15.2 59.4 0
12:58 1020 30.12 849 25.07 24.5 76.2 57 15.6 60.1 0
12:59 1020 30.12 849 25.07 24.5 76.1 58 15.7 60.3 0
13:00 1020 30.12 849 25.07 24.5 76.1 51 13.7 56.7 0
13:01 1020 30.12 849 25.07 24.5 76.1 58 15.9 60.6 0
13:02 1020 30.12 849 25.07 24.6 76.2 54 14.8 58.6 0
13:03 1020 30.12 849 25.07 24.5 76.1 52 14.1 57.4 0
13:04 1020 30.12 849 25.07 24.4 76 53 14.4 58 0
13:05 1020 30.12 849 25.07 24.4 75.9 55 14.8 58.7 0
13:06 1020 30.12 849 25.07 24.4 76 58 15.8 60.5 0
13:07 1020 30.12 849 25.07 24.4 76 51 13.9 56.9 0
13:08 1020 30.12 849 25.07 24.4 76 54 14.8 58.7 0
13:09 1020 30.12 849 25.07 24.4 75.9 52 14 57.2 0
13:10 1020 30.12 849 25.07 24.4 76 51 13.7 56.6 0
13:11 1020 30.12 849 25.07 24.5 76.1 56 15.4 59.7 0
13:12 1020 30.12 849 25.07 24.6 76.3 57 15.8 60.4 0
13:13 1020 30.12 849 25.07 24.8 76.6 52 14.6 58.2 0
13:14 1020 30.12 849 25.07 24.8 76.6 55 15.4 59.7 0
13:15 1020 30.12 849 25.07 24.8 76.6 53 14.8 58.6 0
13:16 1020 30.12 849 25.07 24.8 76.6 58 16.1 61 0
13:17 1020 30.12 849 25.07 24.8 76.6 51 14.1 57.4 0
13:18 1020 30.12 849 25.07 24.8 76.6 50 13.8 56.8 0
13:19 1020 30.12 849 25.07 24.8 76.7 47 13 55.4 0
13:20 1020 30.12 849 25.07 24.8 76.6 54 15 59 0
13:21 1020 30.12 849 25.07 24.8 76.6 52 14.6 58.2 0
13:22 1020 30.12 849 25.07 24.6 76.2 49 13.3 55.9 0
13:23 1020 30.12 849 25.07 24.4 76 50 13.4 56.1 0
13:24 1020 30.12 849 25.07 24.4 75.8 53 14.2 57.6 0
13:25 1020 30.12 849 25.07 24.3 75.8 57 15.5 59.9 0
13:26 1020 30.12 849 25.07 24.4 75.8 57 15.5 59.8 0
13:27 1020 30.12 849 25.07 24.4 75.9 52 14 57.1 0
13:28 1020 30.12 849 25.07 24.5 76.2 51 14 57.1 0
13:29 1020 30.12 849 25.07 24.8 76.6 50 13.9 57 0
13:30 1020 30.12 849 25.07 25 76.9 47 13.1 55.6 0
13:31 1020 30.12 849 25.07 25.2 77.3 57 16.2 61.1 0
13:32 1020 30.12 849 25.07 25.3 77.5 47 13.5 56.3 0
13:33 1020 30.12 849 25.07 25.2 77.3 49 14 57.1 0
13:34 1020 30.12 849 25.07 25 77 44 12.2 54 0
13:35 1020 30.12 849 25.07 25 76.9 55 15.4 59.8 0
13:36 1020 30.12 849 25.07 24.9 76.9 48 13.4 56.1 0
13:37 1020 30.12 849 25.07 24.9 76.8 47 12.9 55.3 0
13:38 1020 30.12 849 25.07 24.9 76.8 49 13.7 56.6 0
13:39 1020 30.12 849 25.07 24.9 76.8 51 14.2 57.6 0
13:40 1020 30.12 849 25.07 24.9 76.9 47 13.2 55.7 0
13:41 1020 30.12 849 25.07 24.8 76.7 51 14.2 57.6 0
13:42 1020 30.12 849 25.07 24.7 76.4 51 14 57.3 0
13:43 1020 30.12 849 25.07 24.5 76.1 53 14.4 57.9 0
13:44 1020 30.12 849 25.07 24.5 76 49 13.3 56 0
13:45 1020 30.12 849 25.07 24.4 75.9 44 11.4 52.6 0
13:46 1020 30.12 849 25.07 24.5 76.1 54 14.8 58.6 0
13:47 1020 30.12 849 25.07 24.5 76.2 50 13.5 56.3 0
13:48 1020 30.12 849 25.07 24.6 76.2 49 13.3 55.9 0
13:49 1020 30.12 849 25.07 24.6 76.2 47 12.8 55 0
13:50 1020 30.12 849 25.07 24.6 76.3 46 12.4 54.3 0
13:51 1019 30.09 849 25.07 24.6 76.3 44 11.8 53.2 0
13:52 1019 30.09 849 25.07 24.7 76.4 49 13.4 56 0
13:53 1019 30.09 849 25.07 24.6 76.3 47 12.7 54.8 0
13:54 1019 30.09 849 25.07 24.6 76.3 51 14.1 57.3 0
13:55 1019 30.09 849 25.07 24.6 76.2 50 13.7 56.7 0
13:56 1019 30.09 849 25.07 24.5 76 54 14.7 58.4 0
13:57 1019 30.09 849 25.07 24.4 75.9 51 13.9 56.9 0
13:58 1019 30.09 849 25.07 24.4 75.9 57 15.5 59.9 0
13:59 1019 30.09 849 25.07 24.4 76 47 12.6 54.7 0
14:00 1019 30.09 849 25.07 24.5 76.1 52 14.1 57.3 0
14:01 1019 30.09 849 25.07 24.7 76.5 54 14.9 58.9 0
14:02 1019 30.09 849 25.07 24.9 76.9 50 13.9 56.9 0
14:03 1019 30.09 849 25.07 25.1 77.1 41 11.1 51.9 0
14:04 1019 30.09 849 25.07 25.1 77.2 53 15 59 0
14:05 1019 30.09 849 25.07 25.2 77.4 43 12.1 53.8 0
14:06 1019 30.09 849 25.07 25.4 77.6 51 14.7 58.5 0
14:07 1019 30.09 849 25.07 25.5 78 42 11.9 53.5 0
14:08 1019 30.09 849 25.07 25.7 78.3 49 14.5 58.1 0
14:09 1019 30.09 849 25.07 25.9 78.6 39 11.2 52.2 0
14:10 1019 30.09 849 25.07 26.1 78.9 42 12.4 54.3 0
14:11 1019 30.09 849 25.07 26.1 79 45 13.6 56.5 0
14:12 1019 30.09 849 25.07 26.2 79.1 39 11.4 52.5 0
14:13 1019 30.09 848 25.04 26.2 79.1 40 11.6 52.9 0
14:14 1019 30.09 848 25.04 26.2 79.2 49 15 59 0
14:15 1019 30.09 848 25.04 26.3 79.3 38 11 51.8 0
14:16 1019 30.09 848 25.04 26.2 79.1 38 11 51.8 0
14:17 1019 30.09 848 25.04 26.1 79 52 15.6 60 0
14:18 1019 30.09 848 25.04 26.3 79.3 43 13.1 55.5 0
14:19 1019 30.09 848 25.04 26.3 79.4 43 13 55.5 0
14:20 1019 30.09 848 25.04 26.4 79.6 44 13.5 56.4 0
14:21 1019 30.09 848 25.04 26.5 79.7 49 15.1 59.1 0
14:22 1019 30.09 848 25.04 26.6 79.9 44 13.4 56.2 0
14:23 1019 30.09 848 25.04 26.7 80 42 12.8 55.1 0
14:24 1019 30.09 848 25.04 26.7 80 40 12.1 53.8 0
14:25 1019 30.09 848 25.04 26.5 79.7 40 12 53.7 0
14:26 1019 30.09 848 25.04 26.3 79.4 42 12.7 54.9 0
14:27 1019 30.09 848 25.04 26.2 79.1 47 14.2 57.6 0
14:28 1019 30.09 848 25.04 26 78.8 44 13.1 55.6 0
14:29 1019 30.09 848 25.04 25.9 78.6 40 11.4 52.5 0
14:30 1019 30.09 848 25.04 25.8 78.4 42 12 53.7 0
14:31 1019 30.09 848 25.04 25.8 78.4 45 13.1 55.6 0
14:32 1019 30.09 848 25.04 25.8 78.5 51 15 59 0
14:33 1019 30.09 848 25.04 25.9 78.7 47 13.9 57 0
14:34 1019 30.09 848 25.04 26.1 78.9 41 12.1 53.8 0
14:35 1019 30.09 848 25.04 26.1 79 41 12.2 54 0
14:36 1019 30.09 848 25.04 26.1 79 43 12.8 55 0
14:37 1019 30.09 848 25.04 26.2 79.1 40 11.8 53.3 0
14:38 1019 30.09 848 25.04 26.3 79.3 42 12.5 54.5 0
14:39 1019 30.09 848 25.04 26.2 79.2 39 11.6 52.9 0
14:40 1019 30.09 848 25.04 26.3 79.4 46 14.1 57.4 0
14:41 1019 30.09 848 25.04 26.4 79.4 47 14.5 58.1 0
14:42 1019 30.09 848 25.04 26.4 79.4 43 13.1 55.6 0
14:43 1019 30.09 848 25.04 26.3 79.3 37 10.6 51.1 0
14:44 1019 30.09 848 25.04 26.3 79.3 38 11 51.8 0
14:45 1019 30.09 848 25.04 26.2 79.2 46 13.8 56.8 0
14:46 1019 30.09 848 25.04 26.2 79.2 44 13.3 55.9 0
14:47 1019 30.09 848 25.04 26.3 79.3 38 11 51.9 0
14:48 1019 30.09 848 25.04 26.2 79.2 38 10.9 51.5 0
14:49 1019 30.09 848 25.04 26.3 79.3 35 10 50.1 0
14:50 1019 30.09 848 25.04 26.3 79.4 41 12.1 53.8 0
14:51 1019 30.09 848 25.04 26.4 79.5 36 10.2 50.4 0
14:52 1019 30.09 848 25.04 26.6 79.8 44 13.4 56.2 0
14:53 1019 30.09 848 25.04 26.7 80 42 13 55.3 0
14:54 1019 30.09 848 25.04 26.8 80.2 46 14.4 57.9 0
14:55 1019 30.09 848 25.04 26.8 80.3 37 11.3 52.3 0
14:56 1019 30.09 848 25.04 26.9 80.3 43 13.6 56.4 0
14:57 1019 30.09 848 25.04 26.9 80.5 39 11.9 53.4 0
14:58 1019 30.09 848 25.04 26.9 80.4 40 12.5 54.6 0
14:59 1019 30.09 848 25.04 26.8 80.3 41 12.7 54.9 0
15:00 1019 30.09 848 25.04 26.7 80.1 37 11 51.7 0
15:01 1019 30.09 848 25.04 26.6 79.9 35 10.2 50.4 0
15:02 1019 30.09 848 25.04 26.6 79.8 42 13 55.4 0
15:03 1019 30.09 848 25.04 26.5 79.7 45 13.9 56.9 0
15:04 1019 30.09 848 25.04 26.4 79.6 35 9.8 49.7 0
15:05 1019 30.09 848 25.04 26.3 79.3 36 10.1 50.2 0
15:06 1019 30.09 848 25.04 26.3 79.3 36 10.4 50.8 0
15:07 1019 30.09 848 25.04 26.3 79.4 36 10.4 50.7 0
15:08 1019 30.09 848 25.04 26.4 79.4 42 12.6 54.7 0
15:09 1019 30.09 848 25.04 26.3 79.4 50 15.3 59.5 0
15:10 1019 30.09 848 25.04 26.1 79 40 11.6 52.8 0
15:11 1019 30.09 848 25.04 25.9 78.7 47 14 57.3 0
15:12 1019 30.09 848 25.04 25.9 78.6 48 14.2 57.6 0
15:13 1019 30.09 848 25.04 25.8 78.5 46 13.6 56.5 0
15:14 1019 30.09 848 25.04 25.8 78.5 43 12.6 54.7 0
15:15 1019 30.09 848 25.04 25.9 78.5 48 14.2 57.6 0
15:16 1019 30.09 848 25.04 25.9 78.6 43 12.4 54.3 0
15:17 1019 30.09 848 25.04 25.8 78.5 48 14.3 57.7 0
15:18 1019 30.09 848 25.04 25.8 78.5 53 15.8 60.5 0
15:19 1019 30.09 848 25.04 25.7 78.3 43 12.4 54.2 0
15:20 1019 30.09 848 25.04 25.7 78.2 45 13 55.5 0
15:21 1019 30.09 848 25.04 25.6 78.1 45 13.1 55.6 0
15:22 1019 30.09 848 25.04 25.6 78 48 13.8 56.9 0
15:23 1019 30.09 848 25.04 25.6 78 46 13.3 55.9 0
15:24 1019 30.09 848 25.04 25.5 77.9 49 14.3 57.7 0
15:25 1019 30.09 848 25.04 25.5 77.8 42 11.8 53.2 0
15:26 1019 30.09 848 25.04 25.4 77.8 48 14 57.1 0
15:27 1019 30.09 848 25.04 25.4 77.7 45 12.9 55.3 0
15:28 1019 30.09 848 25.04 25.3 77.5 48 13.8 56.9 0
15:29 1019 30.09 848 25.04 25.2 77.4 54 15.3 59.5 0
15:30 1019 30.09 848 25.04 25 77.1 51 14.2 57.6 0
15:31 1019 30.09 848 25.04 24.9 76.8 51 14.2 57.6 0
15:32 1019 30.09 848 25.04 24.8 76.7 51 14.3 57.7 0
15:33 1019 30.09 848 25.04 24.8 76.6 52 14.5 58.1 0
15:34 1019 30.09 848 25.04 24.8 76.6 52 14.4 58 0
15:35 1019 30.09 848 25.04 24.8 76.6 55 15.4 59.7 0
15:36 1019 30.09 848 25.04 24.6 76.4 51 13.9 57.1 0
15:37 1019 30.09 848 25.04 24.6 76.2 40 10.5 50.8 0
15:38 1019 30.09 848 25.04 24.6 76.3 46 12.3 54.2 0
15:39 1019 30.09 848 25.04 24.7 76.4 42 11.2 52.2 0
15:40 1019 30.09 848 25.04 24.7 76.5 43 11.5 52.7 0
15:41 1019 30.09 848 25.04 24.8 76.6 41 11 51.8 0
15:42 1019 30.09 848 25.04 24.8 76.6 50 13.7 56.7 0
15:43 1019 30.09 848 25.04 24.7 76.5 54 15 58.9 0
15:44 1019 30.09 848 25.04 24.5 76 57 15.7 60.2 0
15:45 1019 30.09 848 25.04 24.2 75.6 57 15.3 59.5 0
15:46 1019 30.09 848 25.04 24 75.3 60 15.9 60.5 0
15:47 1019 30.09 848 25.04 23.8 74.8 63 16.5 61.7 0
15:48 1019 30.09 848 25.04 23.5 74.4 62 15.9 60.5 0
15:49 1019 30.09 848 25.04 23.4 74.2 62 15.8 60.5 0
15:50 1019 30.09 848 25.04 23.3 74 64 16.3 61.3 0
15:51 1019 30.09 848 25.04 23.3 73.9 63 16.1 60.9 0
15:52 1019 30.09 848 25.04 23.2 73.7 63 15.8 60.4 0
15:53 1019 30.09 848 25.04 23.1 73.6 63 15.9 60.6 0
15:54 1019 30.09 848 25.04 23.1 73.5 64 16 60.9 0
15:55 1019 30.09 848 25.04 23 73.3 64 15.9 60.6 0
15:56 1019 30.09 848 25.04 22.9 73.2 59 14.6 58.3 0
15:57 1019 30.09 848 25.04 22.9 73.3 59 14.6 58.4 0
15:58 1019 30.09 848 25.04 22.9 73.2 61 15 59 0
15:59 1019 30.09 848 25.04 22.8 73 61 14.9 58.8 0
16:00 1019 30.09 848 25.04 22.7 72.8 61 15 59 0
16:01 1019 30.09 848 25.04 22.6 72.6 61 14.7 58.4 0
16:02 1019 30.09 848 25.04 22.4 72.3 60 14.4 57.9 0
16:03 1019 30.09 848 25.04 22.3 72.1 61 14.5 58.1 0
16:04 1019 30.09 848 25.04 22.2 71.9 59 13.8 56.9 0
16:05 1019 30.09 848 25.04 22.1 71.8 60 14.2 57.5 0
16:06 1019 30.09 848 25.04 22 71.5 60 14.1 57.3 0
16:07 1019 30.09 848 25.04 21.8 71.2 59 13.7 56.6 0
16:08 1019 30.09 848 25.04 21.7 71 62 14.2 57.5 0
16:09 1019 30.09 848 25.04 21.5 70.7 62 14.1 57.3 0
16:10 1019 30.09 848 25.04 21.3 70.3 65 14.5 58.1 0
16:11 1019 30.09 849 25.07 21.1 69.9 66 14.6 58.2 0
16:12 1019 30.09 849 25.07 20.8 69.5 68 14.7 58.4 0
16:13 1020 30.12 849 25.07 20.6 69.2 69 14.9 58.8 0
16:14 1020 30.12 849 25.07 20.4 68.8 70 14.9 58.7 0
16:15 1020 30.12 849 25.07 20.2 68.4 68 14.2 57.6 0
16:16 1020 30.12 849 25.07 20.1 68.2 70 14.6 58.2 0
16:17 1020 30.12 850 25.1 19.9 67.8 71 14.7 58.4 0
16:18 1020 30.12 850 25.1 19.6 67.3 69 13.8 56.8 0
16:19 1020 30.12 849 25.07 19.5 67 69 13.6 56.5 0
16:20 1020 30.12 850 25.1 19.3 66.7 69 13.6 56.5 0
16:21 1020 30.12 849 25.07 18.8 65.8 71 13.5 56.3 0
16:22 1020 30.12 849 25.07 17.9 64.1 76 13.6 56.4 0
16:23 1020 30.12 849 25.07 17.1 62.8 80 13.6 56.5 0
16:24 1020 30.12 850 25.1 16.6 61.8 83 13.6 56.5 0
16:25 1021 30.15 850 25.1 16.2 61.2 84 13.6 56.4 0
16:26 1020 30.12 850 25.1 16 60.8 85 13.5 56.3 0
16:27 1020 30.12 850 25.1 15.8 60.5 86 13.5 56.3 0
16:28 1021 30.15 850 25.1 15.6 60.1 84 12.9 55.3 0
16:29 1021 30.15 850 25.1 15.6 60.1 83 12.8 55 0
16:30 1021 30.15 850 25.1 15.7 60.2 82 12.6 54.6 0
16:31 1021 30.15 850 25.1 15.7 60.3 81 12.5 54.6 0
16:32 1021 30.15 850 25.1 15.8 60.4 82 12.8 55.1 0
16:33 1021 30.15 850 25.1 15.8 60.5 81 12.6 54.7 0
16:34 1021 30.15 851 25.13 15.9 60.6 81 12.6 54.8 0
16:35 1021 30.15 851 25.13 16 60.7 82 12.9 55.3 0
16:36 1022 30.18 851 25.13 15.9 60.6 81 12.7 54.8 0
16:37 1022 30.18 851 25.13 15.9 60.6 83 13 55.4 0
16:38 1022 30.18 851 25.13 15.9 60.5 82 12.9 55.2 0
16:39 1022 30.18 851 25.13 15.9 60.6 82 12.9 55.2 0
16:40 1022 30.18 851 25.13 15.9 60.7 81 12.8 55 0
16:41 1022 30.18 851 25.13 15.9 60.7 83 13.1 55.6 0
16:42 1022 30.18 851 25.13 15.8 60.5 84 13.2 55.7 0
16:43 1022 30.18 852 25.16 15.7 60.3 84 13.1 55.5 0
16:44 1022 30.18 852 25.16 15.7 60.2 84 13 55.5 0
16:45 1022 30.18 852 25.16 15.6 60.1 85 13.1 55.5 0
16:46 1022 30.18 852 25.16 15.6 60.1 85 13.1 55.5 0
16:47 1022 30.18 852 25.16 15.6 60 86 13.3 56 0
16:48 1023 30.21 852 25.16 15.5 59.9 86 13.2 55.8 0
16:49 1023 30.21 852 25.16 15.4 59.7 86 13.1 55.6 0
16:50 1023 30.21 852 25.16 15.5 59.8 86 13.1 55.5 0
16:51 1023 30.21 852 25.16 15.5 59.8 86 13.1 55.5 0
16:52 1023 30.21 852 25.16 15.5 59.9 86 13.2 55.7 0
16:53 1023 30.21 852 25.16 15.5 59.8 86 13.1 55.6 0
16:54 1023 30.21 852 25.16 15.5 59.8 86 13.1 55.6 0
16:55 1023 30.21 852 25.16 15.4 59.7 87 13.2 55.8 0
16:56 1023 30.21 852 25.16 15.4 59.7 86 13 55.4 0
16:57 1023 30.21 852 25.16 15.5 59.9 83 12.7 54.9 0
16:58 1023 30.21 852 25.16 15.7 60.2 84 12.9 55.3 0
16:59 1023 30.21 852 25.16 15.7 60.3 85 13.1 55.7 0
17:00 1023 30.21 852 25.16 15.7 60.2 85 13.1 55.6 0
17:01 1023 30.21 852 25.16 15.6 60.1 85 13.1 55.6 0
17:02 1023 30.21 852 25.16 15.6 60 86 13.2 55.8 0
17:03 1023 30.21 852 25.16 15.5 59.9 86 13.1 55.6 0
17:04 1023 30.21 852 25.16 15.5 59.8 86 13.2 55.7 0
17:05 1023 30.21 852 25.16 15.4 59.7 87 13.3 55.9 0
17:06 1023 30.21 852 25.16 15.3 59.6 87 13.2 55.8 0
17:07 1023 30.21 852 25.16 15.3 59.6 88 13.3 56 0
17:08 1023 30.21 852 25.16 15.3 59.6 87 13.1 55.6 0
17:09 1023 30.21 852 25.16 15.3 59.6 86 13.1 55.6 0
17:10 1023 30.21 853 25.19 15.4 59.7 86 13.1 55.6 0
17:11 1023 30.21 853 25.19 15.4 59.7 87 13.2 55.7 0
17:12 1023 30.21 853 25.19 15.4 59.7 87 13.2 55.8 0
17:13 1023 30.21 853 25.19 15.3 59.6 87 13.2 55.8 0
17:14 1023 30.21 853 25.19 15.3 59.5 88 13.3 55.9 0
17:15 1023 30.21 853 25.19 15.1 59.3 88 13.2 55.7 0
17:16 1023 30.21 853 25.19 15.1 59.1 88 13.2 55.7 0
17:17 1023 30.21 853 25.19 15 59.1 88 13.1 55.6 0
17:18 1024 30.24 853 25.19 15 59 89 13.2 55.8 0
17:19 1024 30.24 853 25.19 15 58.9 89 13.2 55.7 0
17:20 1024 30.24 853 25.19 14.9 58.8 89 13.1 55.6 0
17:21 1024 30.24 853 25.19 14.9 58.8 89 13.2 55.7 0
17:22 1024 30.24 853 25.19 14.9 58.7 90 13.2 55.8 0
17:23 1024 30.24 853 25.19 14.8 58.7 90 13.3 55.9 0
17:24 1024 30.24 853 25.19 14.8 58.6 90 13.2 55.8 0
17:25 1024 30.24 853 25.19 14.8 58.7 90 13.2 55.7 0
17:26 1024 30.24 853 25.19 14.8 58.7 90 13.2 55.8 0
17:27 1024 30.24 853 25.19 14.9 58.7 91 13.4 56.1 0
17:28 1024 30.24 853 25.19 14.8 58.7 91 13.3 55.9 0
17:29 1024 30.24 853 25.19 14.8 58.7 90 13.2 55.8 0
17:30 1024 30.24 853 25.19 14.9 58.8 90 13.3 55.9 0
17:31 1024 30.24 853 25.19 14.9 58.9 90 13.3 55.9 0
17:32 1024 30.24 853 25.19 14.9 58.9 90 13.3 55.9 0
17:33 1024 30.24 853 25.19 14.9 58.8 90 13.3 55.9 0
17:34 1024 30.24 853 25.19 14.9 58.9 90 13.3 55.9 0
17:35 1024 30.24 853 25.19 14.9 58.8 90 13.4 56.1 0
17:36 1024 30.24 853 25.19 14.9 58.8 90 13.2 55.8 0
17:37 1024 30.24 853 25.19 14.9 58.9 90 13.3 55.9 0
17:38 1024 30.24 853 25.19 15 58.9 89 13.2 55.7 0
17:39 1024 30.24 853 25.19 15 59 88 13.1 55.5 0
17:40 1024 30.24 853 25.19 15.1 59.2 88 13.1 55.7 0
17:41 1024 30.24 853 25.19 15.1 59.1 88 13.1 55.6 0
17:42 1024 30.24 853 25.19 15.1 59.1 88 13.1 55.6 0
17:43 1024 30.24 853 25.19 15 59.1 89 13.3 55.9 0
17:44 1024 30.24 853 25.19 15 59 89 13.2 55.8 0
17:45 1024 30.24 853 25.19 15 58.9 89 13.3 55.9 0
17:46 1024 30.24 853 25.19 15 58.9 90 13.3 56 0
17:47 1024 30.24 853 25.19 14.9 58.8 90 13.2 55.8 0
17:48 1024 30.24 853 25.19 14.9 58.8 90 13.2 55.8 0
17:49 1024 30.24 853 25.19 14.9 58.8 90 13.3 55.9 0
17:50 1024 30.24 853 25.19 14.9 58.8 90 13.3 56 0
17:51 1024 30.24 853 25.19 14.9 58.8 90 13.3 56 0
17:52 1024 30.24 853 25.19 14.9 58.8 90 13.3 55.9 0
17:53 1024 30.24 853 25.19 14.9 58.7 90 13.2 55.8 0
17:54 1024 30.24 853 25.19 14.9 58.8 89 13.2 55.7 0
17:55 1024 30.24 853 25.19 14.9 58.7 90 13.2 55.8 0
17:56 1024 30.24 853 25.19 14.9 58.8 90 13.3 55.9 0
17:57 1024 30.24 853 25.19 15 58.9 90 13.4 56.1 0
17:58 1024 30.24 853 25.19 14.9 58.8 90 13.2 55.8 0
17:59 1024 30.24 853 25.19 14.9 58.8 90 13.2 55.8 0
18:00 1023 30.21 853 25.19 14.9 58.9 90 13.3 55.9 0
18:01 1023 30.21 853 25.19 14.9 58.9 90 13.3 56 0
18:02 1023 30.21 853 25.19 14.9 58.9 90 13.3 56 0
18:03 1023 30.21 853 25.19 15 58.9 90 13.3 55.9 0
18:04 1023 30.21 853 25.19 15 59 89 13.2 55.8 0
18:05 1023 30.21 852 25.16 15 59.1 89 13.3 56 0
18:06 1023 30.21 852 25.16 15 59.1 88 13.2 55.7 0
18:07 1023 30.21 852 25.16 15.1 59.2 88 13.1 55.6 0
18:08 1023 30.21 852 25.16 15.1 59.2 88 13.2 55.8 0
18:09 1023 30.21 852 25.16 15.2 59.3 90 13.5 56.2 0
18:10 1023 30.21 852 25.16 15.2 59.3 90 13.5 56.4 0
18:11 1023 30.21 852 25.16 15.2 59.4 88 13.3 56 0
18:12 1023 30.21 852 25.16 15.3 59.5 89 13.5 56.4 0
18:13 1023 30.21 852 25.16 15.3 59.5 91 13.7 56.7 0
18:14 1023 30.21 852 25.16 15.3 59.5 89 13.5 56.4 0
18:15 1023 30.21 852 25.16 15.3 59.6 90 13.7 56.6 0
18:16 1023 30.21 852 25.16 15.4 59.7 90 13.8 56.9 0
18:17 1023 30.21 852 25.16 15.4 59.8 90 13.9 57 0
18:18 1023 30.21 852 25.16 15.5 59.9 89 13.8 56.8 0
18:19 1023 30.21 852 25.16 15.6 60 91 14.1 57.4 0
18:20 1023 30.21 852 25.16 15.6 60.1 89 13.8 56.8 0
18:21 1023 30.21 852 25.16 15.6 60.2 89 13.8 56.9 0
18:22 1023 30.21 852 25.16 15.7 60.3 88 13.8 56.8 0
18:23 1023 30.21 852 25.16 15.7 60.2 87 13.5 56.3 0
18:24 1023 30.21 852 25.16 15.7 60.2 87 13.5 56.3 0
18:25 1023 30.21 852 25.16 15.7 60.3 87 13.6 56.5 0
18:26 1023 30.21 852 25.16 15.7 60.2 88 13.6 56.6 0
18:27 1023 30.21 852 25.16 15.7 60.3 87 13.6 56.4 0
18:28 1023 30.21 852 25.16 15.7 60.2 86 13.4 56.2 0
18:29 1023 30.21 852 25.16 15.7 60.2 89 13.9 57 0
18:30 1023 30.21 852 25.16 15.7 60.2 88 13.7 56.7 0
18:31 1023 30.21 852 25.16 15.7 60.3 88 13.7 56.6 0
18:32 1023 30.21 852 25.16 15.7 60.3 86 13.5 56.3 0
18:33 1023 30.21 852 25.16 15.8 60.4 88 13.9 57 0
18:34 1022 30.18 852 25.16 15.8 60.4 88 13.8 56.9 0
18:35 1022 30.18 852 25.16 15.9 60.5 90 14.1 57.5 0
18:36 1022 30.18 852 25.16 15.9 60.7 87 13.8 56.8 0
18:37 1022 30.18 852 25.16 15.9 60.7 87 13.8 56.8 0
18:38 1022 30.18 851 25.13 15.9 60.6 88 13.9 57.1 0
18:39 1022 30.18 851 25.13 15.8 60.5 88 13.9 57 0
18:40 1022 30.18 851 25.13 15.8 60.4 89 14 57.3 0
18:41 1022 30.18 851 25.13 15.8 60.4 89 14 57.2 0
18:42 1022 30.18 851 25.13 15.8 60.4 88 13.9 57 0
18:43 1022 30.18 851 25.13 15.7 60.3 90 14 57.3 0
18:44 1022 30.18 851 25.13 15.8 60.4 88 13.8 56.9 0
18:45 1022 30.18 851 25.13 15.7 60.2 88 13.7 56.7 0
18:46 1022 30.18 851 25.13 15.7 60.2 87 13.6 56.4 0
18:47 1022 30.18 851 25.13 15.7 60.2 89 13.8 56.9 0
18:48 1022 30.18 851 25.13 15.7 60.2 89 14 57.2 0
18:49 1022 30.18 851 25.13 15.7 60.2 90 14.1 57.4 0
18:50 1022 30.18 851 25.13 15.7 60.3 91 14.2 57.6 0
18:51 1022 30.18 851 25.13 15.7 60.2 90 14 57.2 0
18:52 1022 30.18 851 25.13 15.7 60.2 89 13.9 57 0
18:53 1022 30.18 851 25.13 15.7 60.3 88 13.8 56.8 0
18:54 1022 30.18 851 25.13 15.7 60.3 88 13.8 56.8 0
18:55 1022 30.18 851 25.13 15.7 60.3 88 13.7 56.7 0
18:56 1022 30.18 851 25.13 15.8 60.4 88 13.9 57 0
18:57 1021 30.15 851 25.13 15.8 60.4 89 14 57.2 0
18:58 1021 30.15 851 25.13 15.8 60.4 89 13.9 57.1 0
18:59 1021 30.15 851 25.13 15.8 60.4 89 14 57.3 0
19:00 1021 30.15 851 25.13 15.8 60.4 90 14.1 57.5 0
19:01 1021 30.15 851 25.13 15.8 60.5 90 14.1 57.4 0
19:02 1021 30.15 851 25.13 15.9 60.5 89 14 57.2 0
19:03 1021 30.15 851 25.13 15.9 60.7 88 14 57.1 0
19:04 1021 30.15 851 25.13 16 60.9 87 13.9 56.9 0
19:05 1021 30.15 851 25.13 16.1 60.9 87 13.9 56.9 0
19:06 1021 30.15 851 25.13 16.2 61.1 87 14 57.2 0
19:07 1021 30.15 851 25.13 16.3 61.3 87 14.2 57.5 0
19:08 1021 30.15 851 25.13 16.3 61.3 87 14.1 57.4 0
19:09 1021 30.15 851 25.13 16.4 61.5 87 14.2 57.5 0
19:10 1021 30.15 851 25.13 16.5 61.6 87 14.3 57.8 0
19:11 1021 30.15 851 25.13 16.6 61.8 88 14.5 58.1 0
19:12 1021 30.15 851 25.13 16.6 61.9 85 14.2 57.5 0
19:13 1021 30.15 851 25.13 16.7 62 87 14.6 58.2 0
19:14 1021 30.15 851 25.13 16.9 62.4 85 14.5 58 0
19:15 1021 30.15 851 25.13 17 62.6 86 14.7 58.5 0
19:16 1021 30.15 851 25.13 17.2 62.9 80 13.8 56.8 0
19:17 1021 30.15 851 25.13 17.3 63.2 83 14.4 58 0
19:18 1021 30.15 851 25.13 17.5 63.5 81 14.2 57.5 0
19:19 1021 30.15 851 25.13 17.6 63.7 79 14 57.1 0
19:20 1021 30.15 851 25.13 17.6 63.7 79 14.1 57.3 0
19:21 1021 30.15 851 25.13 17.7 63.8 80 14.2 57.6 0
19:22 1021 30.15 851 25.13 17.7 63.9 81 14.4 58 0
19:23 1021 30.15 850 25.1 17.8 64 80 14.3 57.7 0
19:24 1021 30.15 850 25.1 17.8 64.1 78 14.1 57.3 0
19:25 1021 30.15 850 25.1 17.8 64.1 79 14.1 57.4 0
19:26 1021 30.15 850 25.1 17.8 64.1 79 14.2 57.6 0
19:27 1021 30.15 850 25.1 17.9 64.2 78 14.1 57.4 0
19:28 1021 30.15 850 25.1 17.9 64.3 78 14.1 57.4 0
19:29 1021 30.15 850 25.1 18 64.3 81 14.7 58.5 0
19:30 1021 30.15 850 25.1 18 64.4 76 13.7 56.7 0
19:31 1021 30.15 850 25.1 18 64.4 78 14.2 57.5 0
19:32 1021 30.15 850 25.1 18 64.4 77 14 57.2 0
19:33 1021 30.15 850 25.1 18.1 64.5 78 14.1 57.4 0
19:34 1021 30.15 850 25.1 18 64.3 76 13.6 56.5 0
19:35 1021 30.15 850 25.1 17.9 64.3 78 14.1 57.5 0
19:36 1021 30.15 850 25.1 17.9 64.1 78 14.1 57.4 0
19:37 1021 30.15 850 25.1 17.8 64.1 78 14.1 57.3 0
19:38 1021 30.15 850 25.1 17.7 63.9 78 13.9 57 0
19:39 1021 30.15 850 25.1 17.7 63.8 78 13.9 57 0
19:40 1021 30.15 850 25.1 17.6 63.7 79 14 57.1 0
19:41 1021 30.15 850 25.1 17.6 63.6 82 14.5 58 0
19:42 1021 30.15 850 25.1 17.6 63.6 80 14.1 57.4 0
19:43 1021 30.15 850 25.1 17.6 63.7 78 13.8 56.9 0
19:44 1021 30.15 850 25.1 17.7 63.8 79 14.1 57.4 0
19:45 1021 30.15 850 25.1 17.7 63.8 81 14.4 58 0
19:46 1021 30.15 850 25.1 17.6 63.7 80 14.2 57.6 0
19:47 1021 30.15 850 25.1 17.6 63.7 80 14.1 57.5 0
19:48 1021 30.15 850 25.1 17.6 63.7 80 14.1 57.5 0
19:49 1021 30.15 850 25.1 17.6 63.7 80 14.1 57.4 0
19:50 1021 30.15 850 25.1 17.6 63.7 80 14.1 57.3 0
19:51 1021 30.15 850 25.1 17.6 63.7 81 14.4 57.9 0
19:52 1021 30.15 850 25.1 17.6 63.7 81 14.4 57.9 0
19:53 1021 30.15 850 25.1 17.5 63.5 82 14.5 58.1 0
19:54 1021 30.15 850 25.1 17.4 63.3 83 14.4 58 0
19:55 1021 30.15 850 25.1 17.2 63 83 14.4 58 0
19:56 1021 30.15 850 25.1 17.2 62.9 84 14.4 58 0
19:57 1021 30.15 850 25.1 17 62.7 83 14.2 57.5 0
19:58 1021 30.15 850 25.1 17 62.6 84 14.2 57.6 0
19:59 1021 30.15 850 25.1 16.9 62.4 84 14.2 57.6 0
20:00 1021 30.15 850 25.1 16.9 62.4 84 14.1 57.4 0
20:01 1021 30.15 850 25.1 16.8 62.2 84 14.1 57.4 0
20:02 1021 30.15 850 25.1 16.7 62.1 84 14 57.3 0
20:03 1021 30.15 850 25.1 16.7 62.1 84 14.1 57.4 0
20:04 1021 30.15 850 25.1 16.6 61.9 84 14 57.1 0
20:05 1021 30.15 850 25.1 16.6 61.8 85 14 57.3 0
20:06 1021 30.15 850 25.1 16.6 61.9 85 14 57.3 0
20:07 1021 30.15 850 25.1 16.5 61.7 85 14 57.2 0
20:08 1021 30.15 850 25.1 16.5 61.7 85 14.1 57.3 0
20:09 1021 30.15 850 25.1 16.5 61.7 85 14 57.2 0
20:10 1021 30.15 850 25.1 16.4 61.6 85 13.9 57.1 0
20:11 1021 30.15 850 25.1 16.4 61.4 85 13.9 56.9 0
20:12 1021 30.15 850 25.1 16.4 61.4 85 13.9 57.1 0
20:13 1021 30.15 850 25.1 16.3 61.3 86 14 57.1 0
20:14 1021 30.15 850 25.1 16.2 61.2 87 14 57.2 0
20:15 1021 30.15 850 25.1 16.1 61.1 87 14 57.1 0
20:16 1021 30.15 850 25.1 16.1 60.9 87 13.9 57 0
20:17 1020 30.12 850 25.1 16.1 60.9 87 13.9 57.1 0
20:18 1020 30.12 850 25.1 16 60.8 87 13.9 57.1 0
20:19 1020 30.12 850 25.1 15.9 60.6 88 13.9 56.9 0
20:20 1020 30.12 850 25.1 15.9 60.6 87 13.8 56.8 0
20:21 1020 30.12 850 25.1 15.8 60.5 87 13.7 56.7 0
20:22 1020 30.12 850 25.1 15.8 60.4 87 13.7 56.6 0
20:23 1020 30.12 850 25.1 15.8 60.4 87 13.7 56.7 0
20:24 1021 30.15 850 25.1 15.7 60.3 87 13.6 56.5 0
20:25 1021 30.15 850 25.1 15.7 60.3 87 13.7 56.6 0
20:26 1021 30.15 850 25.1 15.7 60.2 87 13.6 56.5 0
20:27 1020 30.12 850 25.1 15.7 60.2 87 13.5 56.3 0
20:28 1020 30.12 850 25.1 15.7 60.2 87 13.5 56.3 0
20:29 1020 30.12 850 25.1 15.7 60.2 87 13.5 56.3 0
20:30 1020 30.12 850 25.1 15.7 60.2 87 13.5 56.2 0
20:31 1020 30.12 850 25.1 15.7 60.2 87 13.5 56.3 0
20:32 1020 30.12 850 25.1 15.7 60.2 87 13.5 56.3 0
20:33 1020 30.12 850 25.1 15.6 60.2 86 13.4 56.1 0
20:34 1020 30.12 850 25.1 15.7 60.3 86 13.4 56 0
20:35 1020 30.12 850 25.1 15.7 60.3 85 13.3 56 0
20:36 1021 30.15 850 25.1 15.8 60.4 85 13.3 56 0
20:37 1020 30.12 850 25.1 15.7 60.3 86 13.3 56 0
20:38 1021 30.15 850 25.1 15.7 60.2 86 13.4 56 0
20:39 1021 30.15 850 25.1 15.7 60.2 86 13.3 56 0
20:40 1021 30.15 850 25.1 15.6 60.1 86 13.3 56 0
20:41 1021 30.15 850 25.1 15.5 59.9 86 13.3 55.9 0
20:42 1021 30.15 850 25.1 15.5 59.9 86 13.2 55.8 0
20:43 1021 30.15 850 25.1 15.5 60 86 13.2 55.8 0
20:44 1021 30.15 850 25.1 15.6 60 86 13.3 55.9 0
20:45 1021 30.15 850 25.1 15.6 60 86 13.2 55.8 0
20:46 1021 30.15 850 25.1 15.6 60 86 13.2 55.8 0
20:47 1021 30.15 850 25.1 15.6 60 86 13.2 55.8 0
20:48 1021 30.15 850 25.1 15.6 60.1 86 13.3 55.9 0
20:49 1021 30.15 850 25.1 15.6 60.1 86 13.3 56 0
20:50 1021 30.15 850 25.1 15.5 60 86 13.3 55.9 0
20:51 1021 30.15 850 25.1 15.5 60 86 13.3 56 0
20:52 1021 30.15 850 25.1 15.5 60 86 13.3 56 0
20:53 1021 30.15 850 25.1 15.5 59.9 87 13.3 55.9 0
20:54 1021 30.15 850 25.1 15.5 59.9 87 13.3 56 0
20:55 1021 30.15 850 25.1 15.5 59.9 87 13.3 56 0
20:56 1021 30.15 850 25.1 15.5 59.8 86 13.2 55.7 0
20:57 1021 30.15 850 25.1 15.5 59.8 86 13.2 55.8 0
20:58 1021 30.15 850 25.1 15.5 59.8 86 13.1 55.7 0
20:59 1021 30.15 850 25.1 15.5 59.9 86 13.1 55.6 0
21:00 1021 30.15 850 25.1 15.6 60 85 13.2 55.7 0
21:01 1021 30.15 850 25.1 15.6 60 85 13.1 55.6 0
21:02 1021 30.15 850 25.1 15.6 60.1 85 13.1 55.6 0
21:03 1021 30.15 850 25.1 15.6 60 85 13.1 55.6 0
21:04 1021 30.15 850 25.1 15.5 59.9 85 13.1 55.6 0
21:05 1021 30.15 850 25.1 15.5 59.9 86 13.1 55.6 0
21:06 1021 30.15 850 25.1 15.4 59.8 86 13.1 55.6 0
21:07 1021 30.15 850 25.1 15.5 59.9 85 13 55.4 0
21:08 1021 30.15 850 25.1 15.5 60 85 13.1 55.6 0
21:09 1021 30.15 850 25.1 15.5 59.9 85 13.1 55.6 0
21:10 1021 30.15 850 25.1 15.5 59.9 86 13.1 55.6 0
21:11 1021 30.15 850 25.1 15.5 59.8 86 13.1 55.5 0
21:12 1021 30.15 850 25.1 15.4 59.8 86 13 55.5 0
21:13 1021 30.15 850 25.1 15.4 59.7 86 13.1 55.5 0
21:14 1021 30.15 850 25.1 15.3 59.6 86 13 55.4 0
21:15 1021 30.15 850 25.1 15.3 59.5 86 13 55.4 0
21:16 1021 30.15 850 25.1 15.2 59.4 86 13 55.3 0
21:17 1021 30.15 850 25.1 15.1 59.2 87 12.9 55.3 0
21:18 1021 30.15 850 25.1 15.1 59.1 87 12.9 55.2 0
21:19 1021 30.15 850 25.1 15 59 87 12.8 55.1 0
21:20 1021 30.15 850 25.1 14.9 58.8 87 12.8 55 0
21:21 1021 30.15 850 25.1 14.8 58.6 87 12.7 54.9 0
21:22 1021 30.15 850 25.1 14.7 58.5 88 12.7 54.9 0
21:23 1021 30.15 850 25.1 14.6 58.4 88 12.7 54.9 0
21:24 1021 30.15 850 25.1 14.6 58.3 89 12.8 55 0
21:25 1021 30.15 850 25.1 14.6 58.2 89 12.8 55.1 0
21:26 1021 30.15 850 25.1 14.6 58.2 90 12.9 55.2 0
21:27 1021 30.15 850 25.1 14.5 58.1 90 12.9 55.2 0
21:28 1021 30.15 850 25.1 14.5 58.1 90 12.9 55.2 0
21:29 1021 30.15 850 25.1 14.5 58.1 90 12.9 55.2 0
21:30 1021 30.15 850 25.1 14.5 58.1 90 12.9 55.2 0
21:31 1021 30.15 850 25.1 14.6 58.2 90 12.9 55.3 0
21:32 1021 30.15 850 25.1 14.6 58.4 90 13 55.3 0
21:33 1021 30.15 850 25.1 14.7 58.5 89 13 55.4 0
21:34 1021 30.15 850 25.1 14.8 58.6 88 12.9 55.2 0
21:35 1021 30.15 850 25.1 14.8 58.6 87 12.7 54.8 0
21:36 1021 30.15 850 25.1 14.6 58.4 87 12.5 54.5 0
21:37 1021 30.15 850 25.1 14.4 58 89 12.6 54.7 0
21:38 1021 30.15 850 25.1 14.3 57.7 90 12.6 54.6 0
21:39 1021 30.15 850 25.1 14.1 57.4 90 12.5 54.6 0
21:40 1021 30.15 851 25.13 14 57.3 90 12.5 54.4 0
21:41 1021 30.15 851 25.13 14 57.1 92 12.6 54.7 0
21:42 1021 30.15 851 25.13 13.9 57.1 91 12.5 54.6 0
21:43 1021 30.15 851 25.13 13.9 57 92 12.6 54.7 0
21:44 1021 30.15 851 25.13 13.9 57 93 12.7 54.9 0
21:45 1021 30.15 851 25.13 14 57.2 93 12.8 55 0
21:46 1021 30.15 851 25.13 14.1 57.3 92 12.9 55.1 0
21:47 1021 30.15 851 25.13 14.2 57.5 92 12.9 55.2 0
21:48 1021 30.15 851 25.13 14.3 57.7 92 12.9 55.3 0
21:49 1021 30.15 851 25.13 14.3 57.8 91 12.9 55.3 0
21:50 1021 30.15 851 25.13 14.4 57.9 91 12.9 55.3 0
21:51 1021 30.15 851 25.13 14.5 58 90 12.9 55.2 0
21:52 1021 30.15 851 25.13 14.4 58 90 12.8 55.1 0
21:53 1022 30.18 851 25.13 14.4 57.9 90 12.8 55.1 0
21:54 1021 30.15 851 25.13 14.4 57.9 89 12.6 54.6 0
21:55 1022 30.18 851 25.13 14.2 57.6 86 12 53.6 0
21:56 1021 30.15 851 25.13 14 57.1 87 11.9 53.4 0
21:57 1021 30.15 851 25.13 13.7 56.7 90 12.2 53.9 0
21:58 1021 30.15 851 25.13 13.5 56.4 91 12.1 53.7 0
21:59 1021 30.15 851 25.13 13.5 56.3 93 12.4 54.3 0
22:00 1021 30.15 851 25.13 13.5 56.4 94 12.6 54.6 0
22:01 1021 30.15 851 25.13 13.7 56.6 91 12.3 54.2 0
22:02 1021 30.15 851 25.13 13.7 56.7 91 12.3 54.1 0
22:03 1021 30.15 851 25.13 13.7 56.6 92 12.3 54.2 0
22:04 1021 30.15 851 25.13 13.6 56.5 92 12.3 54.1 0
22:05 1021 30.15 851 25.13 13.5 56.4 92 12.2 54 0
22:06 1021 30.15 851 25.13 13.5 56.3 92 12.2 54 0
22:07 1022 30.18 851 25.13 13.5 56.3 92 12.3 54.1 0
22:08 1022 30.18 851 25.13 13.5 56.3 92 12.2 53.9 0
22:09 1022 30.18 851 25.13 13.4 56.2 93 12.3 54.1 0
22:10 1022 30.18 851 25.13 13.4 56.1 92 12.2 53.9 0
22:11 1022 30.18 851 25.13 13.3 55.9 92 12 53.6 0
22:12 1022 30.18 851 25.13 13.1 55.7 92 11.9 53.4 0
22:13 1022 30.18 851 25.13 13 55.4 92 11.8 53.3 0
22:14 1022 30.18 851 25.13 13 55.4 93 11.9 53.5 0
22:15 1022 30.18 851 25.13 13 55.3 94 11.9 53.5 0
22:16 1022 30.18 851 25.13 12.9 55.3 94 12 53.5 0
22:17 1022 30.18 851 25.13 12.9 55.1 94 11.9 53.4 0
22:18 1022 30.18 851 25.13 12.8 55.1 93 11.8 53.2 0
22:19 1022 30.18 851 25.13 12.8 55.1 94 11.9 53.4 0
22:20 1021 30.15 851 25.13 12.8 55 94 11.9 53.4 0
22:21 1021 30.15 851 25.13 12.7 54.9 94 11.8 53.2 0
22:22 1021 30.15 851 25.13 12.7 54.8 93 11.6 52.9 0
22:23 1021 30.15 851 25.13 12.6 54.6 94 11.7 53 0
22:24 1021 30.15 851 25.13 12.6 54.7 95 11.9 53.4 0
22:25 1021 30.15 851 25.13 12.7 54.9 95 12 53.5 0
22:26 1021 30.15 851 25.13 12.8 55.1 95 12 53.7 0
22:27 1021 30.15 851 25.13 12.9 55.3 95 12.2 53.9 0
22:28 1021 30.15 851 25.13 13.1 55.5 95 12.3 54.2 0
22:29 1021 30.15 851 25.13 13.3 55.9 95 12.5 54.4 0
22:30 1021 30.15 851 25.13 13.5 56.3 94 12.5 54.5 0
22:31 1021 30.15 851 25.13 13.6 56.6 93 12.5 54.5 0
22:32 1021 30.15 851 25.13 13.8 56.8 92 12.5 54.6 0
22:33 1021 30.15 851 25.13 13.9 56.9 90 12.2 54 0
22:34 1021 30.15 851 25.13 13.8 56.9 89 12.1 53.8 0
22:35 1021 30.15 851 25.13 13.8 56.8 89 12 53.5 0
22:36 1021 30.15 851 25.13 13.7 56.6 91 12.2 53.9 0
22:37 1021 30.15 851 25.13 13.6 56.5 91 12.2 53.9 0
22:38 1021 30.15 851 25.13 13.6 56.5 89 11.9 53.5 0
22:39 1021 30.15 851 25.13 13.5 56.4 90 12 53.6 0
22:40 1021 30.15 851 25.13 13.5 56.3 91 12.1 53.7 0
22:41 1021 30.15 851 25.13 13.4 56.2 91 12.1 53.7 0
22:42 1021 30.15 851 25.13 13.4 56.1 91 12 53.6 0
22:43 1021 30.15 851 25.13 13.3 55.9 92 12.1 53.7 0
22:44 1021 30.15 851 25.13 13.3 55.9 93 12.1 53.8 0
22:45 1021 30.15 851 25.13 13.3 55.9 93 12.2 54 0
22:46 1021 30.15 851 25.13 13.4 56.1 94 12.4 54.2 0
22:47 1021 30.15 851 25.13 13.4 56.1 93 12.2 54 0
22:48 1021 30.15 851 25.13 13.4 56.1 93 12.3 54.1 0
22:49 1021 30.15 851 25.13 13.4 56.1 93 12.2 54 0
22:50 1021 30.15 851 25.13 13.4 56.1 93 12.2 54 0
22:51 1021 30.15 850 25.1 13.3 55.9 93 12.2 53.9 0
22:52 1021 30.15 850 25.1 13.2 55.8 93 12.1 53.8 0
22:53 1021 30.15 850 25.1 13.2 55.7 93 12.2 53.9 0
22:54 1021 30.15 850 25.1 13.1 55.6 94 12.1 53.8 0
22:55 1021 30.15 850 25.1 13 55.4 94 12.1 53.7 0
22:56 1021 30.15 850 25.1 12.9 55.3 94 12 53.6 0
22:57 1021 30.15 850 25.1 12.9 55.2 94 12 53.5 0
22:58 1021 30.15 850 25.1 12.8 55 95 11.9 53.5 0
22:59 1021 30.15 850 25.1 12.8 55 95 12 53.5 0
23:00 1021 30.15 850 25.1 12.7 54.9 95 11.9 53.5 0
23:01 1021 30.15 850 25.1 12.7 54.9 95 12 53.5 0
23:02 1021 30.15 850 25.1 12.8 55 95 12 53.6 0
23:03 1021 30.15 850 25.1 12.8 55 95 12 53.6 0
23:04 1021 30.15 850 25.1 12.9 55.1 95 12 53.6 0
23:05 1021 30.15 850 25.1 12.8 55.1 94 12 53.5 0
23:06 1021 30.15 850 25.1 12.8 55.1 95 12 53.6 0
23:07 1021 30.15 850 25.1 12.8 55.1 95 12 53.7 0
23:08 1021 30.15 850 25.1 12.9 55.2 95 12.1 53.9 0
23:09 1021 30.15 850 25.1 12.9 55.3 95 12.1 53.9 0
23:10 1021 30.15 850 25.1 13 55.3 95 12.2 53.9 0
23:11 1021 30.15 850 25.1 13 55.4 95 12.1 53.9 0
23:12 1021 30.15 850 25.1 13 55.3 94 12.1 53.8 0
23:13 1021 30.15 850 25.1 13 55.4 94 12.1 53.8 0
23:14 1021 30.15 850 25.1 13 55.4 94 12.1 53.8 0
23:15 1021 30.15 850 25.1 13 55.4 94 12.1 53.8 0
23:16 1021 30.15 850 25.1 13 55.3 94 12.1 53.7 0
23:17 1021 30.15 850 25.1 12.9 55.3 95 12.1 53.8 0
23:18 1021 30.15 850 25.1 13 55.3 95 12.1 53.8 0
23:19 1021 30.15 850 25.1 13 55.4 95 12.1 53.8 0
23:20 1021 30.15 850 25.1 13 55.4 94 12.1 53.8 0
23:21 1021 30.15 850 25.1 13 55.4 94 12.1 53.7 0
23:22 1021 30.15 850 25.1 13 55.5 94 12.1 53.7 0
23:23 1021 30.15 850 25.1 13.1 55.6 94 12.1 53.8 0
23:24 1021 30.15 850 25.1 13.1 55.6 93 12.1 53.7 0
23:25 1021 30.15 850 25.1 13.2 55.7 93 12.1 53.7 0
23:26 1021 30.15 850 25.1 13.2 55.7 93 12 53.7 0
23:27 1021 30.15 850 25.1 13.2 55.7 93 12 53.7 0
23:28 1021 30.15 850 25.1 13.2 55.8 92 12 53.7 0
23:29 1021 30.15 850 25.1 13.3 55.9 92 12 53.6 0
23:30 1021 30.15 850 25.1 13.3 55.9 92 12 53.6 0
23:31 1021 30.15 850 25.1 13.3 56 92 12 53.6 0
23:32 1021 30.15 850 25.1 13.3 56 91 12 53.6 0
23:33 1021 30.15 850 25.1 13.4 56 91 12 53.6 0
23:34 1021 30.15 850 25.1 13.4 56 91 12 53.5 0
23:35 1021 30.15 850 25.1 13.4 56.1 91 12 53.6 0
23:36 1021 30.15 850 25.1 13.4 56 91 12 53.6 0
23:37 1021 30.15 850 25.1 13.4 56 91 12 53.6 0
23:38 1021 30.15 850 25.1 13.4 56.1 91 12 53.6 0
23:39 1021 30.15 850 25.1 13.4 56.2 91 12 53.6 0
23:40 1021 30.15 850 25.1 13.4 56.2 91 12 53.5 0
23:41 1021 30.15 850 25.1 13.4 56.2 91 12 53.5 0
23:42 1021 30.15 850 25.1 13.4 56.1 91 12 53.5 0
23:43 1021 30.15 850 25.1 13.4 56.1 91 12 53.5 0
23:44 1021 30.15 850 25.1 13.4 56.1 91 12 53.5 0
23:45 1021 30.15 850 25.1 13.3 56 91 11.9 53.5 0
23:46 1021 30.15 850 25.1 13.3 56 91 11.9 53.5 0
23:47 1021 30.15 850 25.1 13.3 55.9 91 11.9 53.4 0
23:48 1021 30.15 850 25.1 13.3 55.9 91 11.9 53.4 0
23:49 1021 30.15 850 25.1 13.2 55.8 91 11.9 53.3 0
23:50 1021 30.15 850 25.1 13.2 55.8 92 11.9 53.4 0
23:51 1021 30.15 850 25.1 13.2 55.7 92 11.9 53.4 0
23:52 1021 30.15 850 25.1 13.2 55.7 92 11.9 53.4 0
23:53 1021 30.15 850 25.1 13.2 55.7 92 11.9 53.3 0
23:54 1021 30.15 850 25.1 13.2 55.7 92 11.8 53.3 0
23:55 1021 30.15 850 25.1 13.1 55.6 92 11.8 53.3 0
23:56 1021 30.15 850 25.1 13.1 55.6 92 11.8 53.3 0
23:57 1021 30.15 850 25.1 13.1 55.6 92 11.8 53.2 0
23:58 1021 30.15 850 25.1 13.1 55.6 92 11.8 53.2 0
23:59 1021 30.15 850 25.1 13.1 55.6 92 11.8 53.2 0
24:00 1021 30.15 850 25.1 13.1 55.7 92 11.8 53.2 0